Wetterdaten: Mittwoch, 24.12.2014
Datum Zeit Temp. Aussen +5cm Feuchte Auss Luftdruck Regen Sonnenschein Regendauer Solar Windben
24.12.2014 00:00 9,7 C 8,3 C 84 % 1017,1 hPa 0,0 l/m 0 min 0 min 0 W/m 33,5 km/h (5 Bft)
24.12.2014 00:02 9,7 C 8,3 C 84 % 1017,1 hPa 0,0 l/m 0 min 0 min 0 W/m 35,6 km/h (5 Bft)
24.12.2014 00:05 9,7 C 8,3 C 83 % 1017,1 hPa 0,0 l/m 0 min 0 min 0 W/m 31,4 km/h (5 Bft)
24.12.2014 00:06 9,7 C 8,3 C 83 % 1017,1 hPa 0,0 l/m 0 min 0 min 0 W/m 33,5 km/h (5 Bft)
24.12.2014 00:08 9,7 C 8,3 C 83 % 1017,1 hPa 0,0 l/m 0 min 0 min 0 W/m 35,6 km/h (5 Bft)
24.12.2014 00:10 9,7 C 8,3 C 83 % 1017,1 hPa 0,0 l/m 0 min 0 min 0 W/m 31,4 km/h (5 Bft)
24.12.2014 00:12 9,7 C 8,3 C 83 % 1017,1 hPa 0,0 l/m 0 min 0 min 0 W/m 41,8 km/h (6 Bft)
24.12.2014 00:14 9,7 C 8,3 C 83 % 1017,2 hPa 0,0 l/m 0 min 0 min 0 W/m 31,4 km/h (5 Bft)
24.12.2014 00:16 9,7 C 8,3 C 83 % 1017,1 hPa 0,0 l/m 0 min 0 min 0 W/m 31,4 km/h (5 Bft)
24.12.2014 00:18 9,7 C 8,3 C 83 % 1017,2 hPa 0,0 l/m 0 min 0 min 0 W/m 41,8 km/h (6 Bft)
24.12.2014 00:20 9,7 C 8,3 C 83 % 1017,1 hPa 0,0 l/m 0 min 0 min 0 W/m 29,3 km/h (5 Bft)
24.12.2014 00:22 9,7 C 8,3 C 83 % 1017,3 hPa 0,0 l/m 0 min 0 min 0 W/m 41,8 km/h (6 Bft)
24.12.2014 00:24 9,7 C 8,3 C 83 % 1017,1 hPa 0,0 l/m 0 min 0 min 0 W/m 35,6 km/h (5 Bft)
24.12.2014 00:26 9,7 C 8,3 C 83 % 1017,1 hPa 0,0 l/m 0 min 0 min 0 W/m 29,3 km/h (5 Bft)
24.12.2014 00:28 9,7 C 8,3 C 83 % 1017,1 hPa 0,0 l/m 0 min 0 min 0 W/m 29,3 km/h (5 Bft)
24.12.2014 00:30 9,7 C 8,3 C 83 % 1017,1 hPa 0,0 l/m 0 min 0 min 0 W/m 29,3 km/h (5 Bft)
24.12.2014 00:32 9,7 C 8,3 C 83 % 1017,0 hPa 0,0 l/m 0 min 0 min 0 W/m 35,6 km/h (5 Bft)
24.12.2014 00:34 9,7 C 8,3 C 83 % 1017,0 hPa 0,0 l/m 0 min 0 min 0 W/m 35,6 km/h (5 Bft)
24.12.2014 00:36 9,7 C 8,3 C 82 % 1017,0 hPa 0,0 l/m 0 min 0 min 0 W/m 37,7 km/h (5 Bft)
24.12.2014 00:38 9,7 C 8,3 C 82 % 1017,0 hPa 0,0 l/m 0 min 0 min 0 W/m 27,2 km/h (4 Bft)
24.12.2014 00:40 9,7 C 8,3 C 82 % 1017,0 hPa 0,0 l/m 0 min 0 min 0 W/m 27,2 km/h (4 Bft)
24.12.2014 00:42 9,7 C 8,3 C 82 % 1016,9 hPa 0,0 l/m 0 min 0 min 0 W/m 33,5 km/h (5 Bft)
24.12.2014 00:44 9,7 C 8,3 C 82 % 1017,1 hPa 0,0 l/m 0 min 0 min 0 W/m 41,8 km/h (6 Bft)
24.12.2014 00:46 9,7 C 8,3 C 82 % 1016,9 hPa 0,0 l/m 0 min 0 min 0 W/m 27,2 km/h (4 Bft)
24.12.2014 00:48 9,7 C 8,3 C 82 % 1017,0 hPa 0,0 l/m 0 min 0 min 0 W/m 27,2 km/h (4 Bft)
24.12.2014 00:50 9,6 C 8,3 C 82 % 1017,0 hPa 0,0 l/m 0 min 0 min 0 W/m 31,4 km/h (5 Bft)
24.12.2014 00:52 9,6 C 8,3 C 82 % 1017,0 hPa 0,0 l/m 0 min 0 min 0 W/m 39,7 km/h (6 Bft)
24.12.2014 00:54 9,6 C 8,3 C 82 % 1017,0 hPa 0,0 l/m 0 min 0 min 0 W/m 35,6 km/h (5 Bft)
24.12.2014 00:56 9,6 C 8,3 C 82 % 1016,9 hPa 0,0 l/m 0 min 0 min 0 W/m 31,4 km/h (5 Bft)
24.12.2014 00:58 9,6 C 8,3 C 81 % 1016,9 hPa 0,0 l/m 0 min 0 min 0 W/m 41,8 km/h (6 Bft)
24.12.2014 01:00 9,6 C 8,3 C 82 % 1016,9 hPa 0,0 l/m 0 min 0 min 0 W/m 23,0 km/h (4 Bft)
24.12.2014 01:02 9,6 C 8,3 C 81 % 1016,9 hPa 0,0 l/m 0 min 0 min 0 W/m 39,7 km/h (6 Bft)
24.12.2014 01:04 9,6 C 8,3 C 81 % 1016,9 hPa 0,0 l/m 0 min 0 min 0 W/m 33,5 km/h (5 Bft)
24.12.2014 01:06 9,6 C 8,3 C 81 % 1017,0 hPa 0,0 l/m 0 min 0 min 0 W/m 37,7 km/h (5 Bft)
24.12.2014 01:08 9,6 C 8,3 C 81 % 1017,2 hPa 0,0 l/m 0 min 0 min 0 W/m 39,7 km/h (6 Bft)
24.12.2014 01:10 9,6 C 8,3 C 81 % 1016,9 hPa 0,0 l/m 0 min 0 min 0 W/m 27,2 km/h (4 Bft)
24.12.2014 01:12 9,5 C 8,3 C 82 % 1016,9 hPa 0,0 l/m 0 min 0 min 0 W/m 33,5 km/h (5 Bft)
24.12.2014 01:14 9,5 C 8,3 C 82 % 1016,9 hPa 0,0 l/m 0 min 0 min 0 W/m 25,1 km/h (4 Bft)
24.12.2014 01:16 9,5 C 7,8 C 82 % 1016,9 hPa 0,0 l/m 0 min 0 min 0 W/m 37,7 km/h (5 Bft)
24.12.2014 01:18 9,4 C 7,8 C 82 % 1016,9 hPa 0,0 l/m 0 min 0 min 0 W/m 29,3 km/h (5 Bft)
24.12.2014 01:20 9,4 C 7,8 C 82 % 1016,9 hPa 0,0 l/m 0 min 0 min 0 W/m 31,4 km/h (5 Bft)
24.12.2014 01:22 9,4 C 7,8 C 82 % 1016,8 hPa 0,0 l/m 0 min 0 min 0 W/m 27,2 km/h (4 Bft)
24.12.2014 01:24 9,4 C 7,8 C 82 % 1016,9 hPa 0,0 l/m 0 min 0 min 0 W/m 29,3 km/h (5 Bft)
24.12.2014 01:26 9,4 C 7,8 C 82 % 1016,9 hPa 0,0 l/m 0 min 0 min 0 W/m 31,4 km/h (5 Bft)
24.12.2014 01:28 9,4 C 7,8 C 82 % 1016,8 hPa 0,0 l/m 0 min 0 min 0 W/m 29,3 km/h (5 Bft)
24.12.2014 01:30 9,4 C 7,8 C 82 % 1016,9 hPa 0,0 l/m 0 min 0 min 0 W/m 41,8 km/h (6 Bft)
24.12.2014 01:32 9,3 C 7,8 C 82 % 1016,9 hPa 0,0 l/m 0 min 0 min 0 W/m 31,4 km/h (5 Bft)
24.12.2014 01:34 9,3 C 7,8 C 82 % 1016,9 hPa 0,0 l/m 0 min 0 min 0 W/m 37,7 km/h (5 Bft)
24.12.2014 01:36 9,3 C 7,8 C 82 % 1016,7 hPa 0,0 l/m 0 min 0 min 0 W/m 33,5 km/h (5 Bft)
24.12.2014 01:38 9,3 C 7,8 C 82 % 1016,8 hPa 0,0 l/m 0 min 0 min 0 W/m 33,5 km/h (5 Bft)
24.12.2014 01:40 9,3 C 7,8 C 82 % 1016,8 hPa 0,0 l/m 0 min 0 min 0 W/m 31,4 km/h (5 Bft)
24.12.2014 01:42 9,3 C 7,8 C 82 % 1016,8 hPa 0,0 l/m 0 min 0 min 0 W/m 39,7 km/h (6 Bft)
24.12.2014 01:44 9,3 C 7,8 C 81 % 1016,7 hPa 0,0 l/m 0 min 0 min 0 W/m 31,4 km/h (5 Bft)
24.12.2014 01:46 9,3 C 7,8 C 82 % 1016,7 hPa 0,0 l/m 0 min 0 min 0 W/m 31,4 km/h (5 Bft)
24.12.2014 01:48 9,3 C 7,8 C 82 % 1016,7 hPa 0,0 l/m 0 min 0 min 0 W/m 33,5 km/h (5 Bft)
24.12.2014 01:50 9,3 C 7,8 C 82 % 1016,7 hPa 0,0 l/m 0 min 0 min 0 W/m 35,6 km/h (5 Bft)
24.12.2014 01:52 9,3 C 7,8 C 82 % 1016,8 hPa 0,0 l/m 0 min 0 min 0 W/m 27,2 km/h (4 Bft)
24.12.2014 01:54 9,2 C 7,8 C 82 % 1016,8 hPa 0,0 l/m 0 min 0 min 0 W/m 39,7 km/h (6 Bft)
24.12.2014 01:56 9,2 C 7,8 C 82 % 1016,7 hPa 0,0 l/m 0 min 0 min 0 W/m 33,5 km/h (5 Bft)
24.12.2014 01:58 9,2 C 7,8 C 82 % 1016,8 hPa 0,0 l/m 0 min 0 min 0 W/m 31,4 km/h (5 Bft)
24.12.2014 02:00 9,2 C 7,8 C 82 % 1016,7 hPa 0,0 l/m 0 min 0 min 0 W/m 31,4 km/h (5 Bft)
24.12.2014 02:02 9,2 C 7,8 C 82 % 1016,6 hPa 0,0 l/m 0 min 0 min 0 W/m 31,4 km/h (5 Bft)
24.12.2014 02:04 9,2 C 7,8 C 82 % 1016,7 hPa 0,0 l/m 0 min 0 min 0 W/m 23,0 km/h (4 Bft)
24.12.2014 02:06 9,2 C 7,8 C 82 % 1016,6 hPa 0,0 l/m 0 min 0 min 0 W/m 35,6 km/h (5 Bft)
24.12.2014 02:08 9,1 C 7,8 C 82 % 1016,7 hPa 0,0 l/m 0 min 0 min 0 W/m 33,5 km/h (5 Bft)
24.12.2014 02:10 9,1 C 7,8 C 82 % 1016,7 hPa 0,0 l/m 0 min 0 min 0 W/m 39,7 km/h (6 Bft)
24.12.2014 02:12 9,1 C 7,8 C 82 % 1016,7 hPa 0,0 l/m 0 min 0 min 0 W/m 37,7 km/h (5 Bft)
24.12.2014 02:14 9,1 C 7,8 C 82 % 1016,6 hPa 0,0 l/m 0 min 0 min 0 W/m 29,3 km/h (5 Bft)
24.12.2014 02:16 9,1 C 7,8 C 82 % 1016,6 hPa 0,0 l/m 0 min 0 min 0 W/m 48,1 km/h (6 Bft)
24.12.2014 02:18 9,1 C 7,8 C 82 % 1016,7 hPa 0,0 l/m 0 min 0 min 0 W/m 33,5 km/h (5 Bft)
24.12.2014 02:20 9,1 C 7,8 C 82 % 1016,6 hPa 0,0 l/m 0 min 0 min 0 W/m 43,9 km/h (6 Bft)
24.12.2014 02:22 9,1 C 7,8 C 82 % 1016,8 hPa 0,0 l/m 0 min 0 min 0 W/m 41,8 km/h (6 Bft)
24.12.2014 02:24 9,1 C 7,8 C 82 % 1016,7 hPa 0,0 l/m 0 min 0 min 0 W/m 37,7 km/h (5 Bft)
24.12.2014 02:26 9,1 C 7,8 C 82 % 1016,7 hPa 0,0 l/m 0 min 0 min 0 W/m 27,2 km/h (4 Bft)
24.12.2014 02:28 9,1 C 7,8 C 82 % 1016,7 hPa 0,0 l/m 0 min 0 min 0 W/m 41,8 km/h (6 Bft)
24.12.2014 02:30 9,1 C 7,8 C 82 % 1016,8 hPa 0,0 l/m 0 min 0 min 0 W/m 37,7 km/h (5 Bft)
24.12.2014 02:32 9,1 C 7,8 C 82 % 1016,8 hPa 0,0 l/m 0 min 0 min 0 W/m 37,7 km/h (5 Bft)
24.12.2014 02:34 9,1 C 7,8 C 82 % 1016,7 hPa 0,0 l/m 0 min 0 min 0 W/m 37,7 km/h (5 Bft)
24.12.2014 02:36 9,1 C 7,8 C 82 % 1016,7 hPa 0,0 l/m 0 min 0 min 0 W/m 31,4 km/h (5 Bft)
24.12.2014 02:38 9,0 C 7,8 C 82 % 1016,7 hPa 0,0 l/m 0 min 0 min 0 W/m 35,6 km/h (5 Bft)
24.12.2014 02:40 9,0 C 7,8 C 82 % 1016,7 hPa 0,0 l/m 0 min 0 min 0 W/m 31,4 km/h (5 Bft)
24.12.2014 02:42 9,0 C 7,8 C 82 % 1016,7 hPa 0,0 l/m 0 min 0 min 0 W/m 33,5 km/h (5 Bft)
24.12.2014 02:44 9,0 C 7,8 C 82 % 1016,7 hPa 0,0 l/m 0 min 0 min 0 W/m 35,6 km/h (5 Bft)
24.12.2014 02:46 9,0 C 7,8 C 82 % 1016,7 hPa 0,0 l/m 0 min 0 min 0 W/m 39,7 km/h (6 Bft)
24.12.2014 02:48 9,0 C 7,8 C 82 % 1016,7 hPa 0,0 l/m 0 min 0 min 0 W/m 29,3 km/h (5 Bft)
24.12.2014 02:50 8,9 C 7,8 C 82 % 1016,7 hPa 0,0 l/m 0 min 0 min 0 W/m 31,4 km/h (5 Bft)
24.12.2014 02:52 8,9 C 7,8 C 82 % 1016,7 hPa 0,0 l/m 0 min 0 min 0 W/m 39,7 km/h (6 Bft)
24.12.2014 02:54 8,9 C 7,8 C 82 % 1016,7 hPa 0,0 l/m 0 min 0 min 0 W/m 35,6 km/h (5 Bft)
24.12.2014 02:56 8,9 C 7,8 C 82 % 1016,6 hPa 0,0 l/m 0 min 0 min 0 W/m 41,8 km/h (6 Bft)
24.12.2014 02:58 8,9 C 7,8 C 82 % 1016,7 hPa 0,0 l/m 0 min 0 min 0 W/m 37,7 km/h (5 Bft)
24.12.2014 03:00 8,9 C 7,8 C 81 % 1016,5 hPa 0,0 l/m 0 min 0 min 0 W/m 46,0 km/h (6 Bft)
24.12.2014 03:02 8,9 C 7,8 C 81 % 1016,5 hPa 0,0 l/m 0 min 0 min 0 W/m 35,6 km/h (5 Bft)
24.12.2014 03:04 8,9 C 7,8 C 81 % 1016,4 hPa 0,0 l/m 0 min 0 min 0 W/m 35,6 km/h (5 Bft)
24.12.2014 03:06 8,9 C 7,8 C 81 % 1016,4 hPa 0,0 l/m 0 min 0 min 0 W/m 33,5 km/h (5 Bft)
24.12.2014 03:08 8,9 C 7,8 C 81 % 1016,3 hPa 0,0 l/m 0 min 0 min 0 W/m 37,7 km/h (5 Bft)
24.12.2014 03:10 8,9 C 7,8 C 81 % 1016,2 hPa 0,0 l/m 0 min 0 min 0 W/m 46,0 km/h (6 Bft)
24.12.2014 03:12 8,9 C 7,8 C 81 % 1016,3 hPa 0,0 l/m 0 min 0 min 0 W/m 37,7 km/h (5 Bft)
24.12.2014 03:14 8,9 C 7,8 C 81 % 1016,2 hPa 0,0 l/m 0 min 0 min 0 W/m 46,0 km/h (6 Bft)
24.12.2014 03:16 8,9 C 7,8 C 81 % 1016,2 hPa 0,0 l/m 0 min 0 min 0 W/m 33,5 km/h (5 Bft)
24.12.2014 03:18 8,9 C 7,8 C 81 % 1016,1 hPa 0,0 l/m 0 min 0 min 0 W/m 25,1 km/h (4 Bft)
24.12.2014 03:20 8,9 C 7,8 C 81 % 1016,1 hPa 0,0 l/m 0 min 0 min 0 W/m 35,6 km/h (5 Bft)
24.12.2014 03:22 8,9 C 7,8 C 81 % 1016,0 hPa 0,0 l/m 0 min 0 min 0 W/m 37,7 km/h (5 Bft)
24.12.2014 03:24 8,9 C 7,8 C 81 % 1015,9 hPa 0,0 l/m 0 min 0 min 0 W/m 29,3 km/h (5 Bft)
24.12.2014 03:26 8,9 C 7,8 C 81 % 1015,8 hPa 0,0 l/m 0 min 0 min 0 W/m 31,4 km/h (5 Bft)
24.12.2014 03:28 8,9 C 7,8 C 81 % 1015,9 hPa 0,0 l/m 0 min 0 min 0 W/m 39,7 km/h (6 Bft)
24.12.2014 03:30 8,8 C 7,2 C 81 % 1015,8 hPa 0,0 l/m 0 min 0 min 0 W/m 39,7 km/h (6 Bft)
24.12.2014 03:32 8,8 C 7,2 C 81 % 1015,8 hPa 0,0 l/m 0 min 0 min 0 W/m 29,3 km/h (5 Bft)
24.12.2014 03:34 8,8 C 7,2 C 81 % 1015,7 hPa 0,0 l/m 0 min 0 min 0 W/m 20,9 km/h (4 Bft)
24.12.2014 03:36 8,8 C 7,2 C 81 % 1015,8 hPa 0,0 l/m 0 min 0 min 0 W/m 33,5 km/h (5 Bft)
24.12.2014 03:38 8,8 C 7,2 C 81 % 1015,7 hPa 0,0 l/m 0 min 0 min 0 W/m 41,8 km/h (6 Bft)
24.12.2014 03:40 8,7 C 7,2 C 81 % 1015,7 hPa 0,0 l/m 0 min 0 min 0 W/m 31,4 km/h (5 Bft)
24.12.2014 03:42 8,7 C 7,2 C 81 % 1015,7 hPa 0,0 l/m 0 min 0 min 0 W/m 35,6 km/h (5 Bft)
24.12.2014 03:44 8,7 C 7,2 C 81 % 1015,7 hPa 0,0 l/m 0 min 0 min 0 W/m 27,2 km/h (4 Bft)
24.12.2014 03:46 8,7 C 7,2 C 81 % 1015,7 hPa 0,0 l/m 0 min 0 min 0 W/m 50,2 km/h (7 Bft)
24.12.2014 03:48 8,7 C 7,2 C 81 % 1015,6 hPa 0,0 l/m 0 min 0 min 0 W/m 23,0 km/h (4 Bft)
24.12.2014 03:50 8,7 C 7,2 C 81 % 1015,5 hPa 0,0 l/m 0 min 0 min 0 W/m 37,7 km/h (5 Bft)
24.12.2014 03:52 8,7 C 7,2 C 81 % 1015,5 hPa 0,0 l/m 0 min 0 min 0 W/m 37,7 km/h (5 Bft)
24.12.2014 03:54 8,7 C 7,2 C 81 % 1015,4 hPa 0,0 l/m 0 min 0 min 0 W/m 31,4 km/h (5 Bft)
24.12.2014 03:56 8,7 C 7,2 C 82 % 1015,5 hPa 0,0 l/m 0 min 0 min 0 W/m 43,9 km/h (6 Bft)
24.12.2014 03:58 8,7 C 7,2 C 82 % 1015,4 hPa 0,0 l/m 0 min 0 min 0 W/m 16,7 km/h (3 Bft)
24.12.2014 04:00 8,7 C 7,2 C 82 % 1015,3 hPa 0,0 l/m 0 min 0 min 0 W/m 35,6 km/h (5 Bft)
24.12.2014 04:02 8,7 C 7,2 C 81 % 1015,3 hPa 0,0 l/m 0 min 0 min 0 W/m 31,4 km/h (5 Bft)
24.12.2014 04:04 8,6 C 7,2 C 81 % 1015,3 hPa 0,0 l/m 0 min 0 min 0 W/m 33,5 km/h (5 Bft)
24.12.2014 04:06 8,6 C 7,2 C 81 % 1015,3 hPa 0,0 l/m 0 min 0 min 0 W/m 27,2 km/h (4 Bft)
24.12.2014 04:08 8,6 C 7,2 C 81 % 1015,4 hPa 0,0 l/m 0 min 0 min 0 W/m 27,2 km/h (4 Bft)
24.12.2014 04:10 8,7 C 7,2 C 81 % 1015,3 hPa 0,0 l/m 0 min 0 min 0 W/m 35,6 km/h (5 Bft)
24.12.2014 04:12 8,7 C 7,2 C 81 % 1015,3 hPa 0,0 l/m 0 min 0 min 0 W/m 37,7 km/h (5 Bft)
24.12.2014 04:14 8,7 C 7,2 C 81 % 1015,2 hPa 0,0 l/m 0 min 0 min 0 W/m 33,5 km/h (5 Bft)
24.12.2014 04:16 8,7 C 7,2 C 81 % 1015,1 hPa 0,0 l/m 0 min 0 min 0 W/m 31,4 km/h (5 Bft)
24.12.2014 04:18 8,7 C 7,2 C 81 % 1015,2 hPa 0,0 l/m 0 min 0 min 0 W/m 25,1 km/h (4 Bft)
24.12.2014 04:20 8,7 C 7,2 C 81 % 1015,2 hPa 0,0 l/m 0 min 0 min 0 W/m 29,3 km/h (5 Bft)
24.12.2014 04:22 8,7 C 7,2 C 81 % 1015,2 hPa 0,0 l/m 0 min 0 min 0 W/m 39,7 km/h (6 Bft)
24.12.2014 04:24 8,7 C 7,2 C 81 % 1015,1 hPa 0,0 l/m 0 min 0 min 0 W/m 33,5 km/h (5 Bft)
24.12.2014 04:26 8,7 C 7,2 C 81 % 1015,1 hPa 0,0 l/m 0 min 0 min 0 W/m 31,4 km/h (5 Bft)
24.12.2014 04:28 8,7 C 7,8 C 81 % 1015,1 hPa 0,0 l/m 0 min 0 min 0 W/m 33,5 km/h (5 Bft)
24.12.2014 04:30 8,7 C 7,8 C 81 % 1015,2 hPa 0,0 l/m 0 min 0 min 0 W/m 27,2 km/h (4 Bft)
24.12.2014 04:32 8,7 C 7,8 C 81 % 1015,0 hPa 0,0 l/m 0 min 0 min 0 W/m 37,7 km/h (5 Bft)
24.12.2014 04:34 8,7 C 7,8 C 81 % 1015,1 hPa 0,0 l/m 0 min 0 min 0 W/m 29,3 km/h (5 Bft)
24.12.2014 04:36 8,8 C 7,8 C 81 % 1015,1 hPa 0,0 l/m 0 min 0 min 0 W/m 37,7 km/h (5 Bft)
24.12.2014 04:38 8,8 C 7,8 C 81 % 1015,1 hPa 0,0 l/m 0 min 0 min 0 W/m 23,0 km/h (4 Bft)
24.12.2014 04:40 8,8 C 7,8 C 81 % 1015,0 hPa 0,0 l/m 0 min 0 min 0 W/m 25,1 km/h (4 Bft)
24.12.2014 04:42 8,8 C 7,8 C 81 % 1015,1 hPa 0,0 l/m 0 min 0 min 0 W/m 29,3 km/h (5 Bft)
24.12.2014 04:44 8,8 C 7,8 C 81 % 1014,9 hPa 0,0 l/m 0 min 0 min 0 W/m 31,4 km/h (5 Bft)
24.12.2014 04:46 8,8 C 7,8 C 81 % 1014,9 hPa 0,0 l/m 0 min 0 min 0 W/m 39,7 km/h (6 Bft)
24.12.2014 04:48 8,8 C 7,8 C 81 % 1014,8 hPa 0,0 l/m 0 min 0 min 0 W/m 35,6 km/h (5 Bft)
24.12.2014 04:50 8,8 C 7,8 C 81 % 1014,7 hPa 0,0 l/m 0 min 0 min 0 W/m 33,5 km/h (5 Bft)
24.12.2014 04:52 8,8 C 7,8 C 81 % 1014,7 hPa 0,0 l/m 0 min 0 min 0 W/m 25,1 km/h (4 Bft)
24.12.2014 04:54 8,8 C 7,8 C 81 % 1014,7 hPa 0,0 l/m 0 min 0 min 0 W/m 33,5 km/h (5 Bft)
24.12.2014 04:56 8,8 C 7,8 C 81 % 1014,9 hPa 0,0 l/m 0 min 0 min 0 W/m 31,4 km/h (5 Bft)
24.12.2014 04:58 8,8 C 7,8 C 81 % 1014,7 hPa 0,0 l/m 0 min 0 min 0 W/m 29,3 km/h (5 Bft)
24.12.2014 05:00 8,8 C 7,8 C 81 % 1014,7 hPa 0,0 l/m 0 min 0 min 0 W/m 33,5 km/h (5 Bft)
24.12.2014 05:02 8,8 C 7,8 C 81 % 1014,8 hPa 0,0 l/m 0 min 0 min 0 W/m 37,7 km/h (5 Bft)
24.12.2014 05:04 8,8 C 7,8 C 81 % 1014,7 hPa 0,0 l/m 0 min 0 min 0 W/m 29,3 km/h (5 Bft)
24.12.2014 05:06 8,8 C 7,8 C 81 % 1014,7 hPa 0,0 l/m 0 min 0 min 0 W/m 25,1 km/h (4 Bft)
24.12.2014 05:08 8,8 C 7,8 C 81 % 1014,8 hPa 0,0 l/m 0 min 0 min 0 W/m 35,6 km/h (5 Bft)
24.12.2014 05:10 8,8 C 7,8 C 81 % 1014,8 hPa 0,0 l/m 0 min 0 min 0 W/m 35,6 km/h (5 Bft)
24.12.2014 05:12 8,8 C 7,8 C 81 % 1014,8 hPa 0,0 l/m 0 min 0 min 0 W/m 35,6 km/h (5 Bft)
24.12.2014 05:14 8,8 C 7,8 C 81 % 1014,7 hPa 0,0 l/m 0 min 0 min 0 W/m 33,5 km/h (5 Bft)
24.12.2014 05:16 8,9 C 7,8 C 81 % 1014,7 hPa 0,0 l/m 0 min 0 min 0 W/m 43,9 km/h (6 Bft)
24.12.2014 05:18 8,9 C 7,8 C 81 % 1014,9 hPa 0,0 l/m 0 min 0 min 0 W/m 43,9 km/h (6 Bft)
24.12.2014 05:20 8,9 C 7,8 C 81 % 1014,8 hPa 0,0 l/m 0 min 0 min 0 W/m 31,4 km/h (5 Bft)
24.12.2014 05:22 8,9 C 7,8 C 81 % 1014,7 hPa 0,0 l/m 0 min 0 min 0 W/m 25,1 km/h (4 Bft)
24.12.2014 05:24 8,9 C 7,8 C 81 % 1014,7 hPa 0,0 l/m 0 min 0 min 0 W/m 37,7 km/h (5 Bft)
24.12.2014 05:26 8,9 C 7,8 C 81 % 1014,8 hPa 0,0 l/m 0 min 0 min 0 W/m 31,4 km/h (5 Bft)
24.12.2014 05:28 8,9 C 7,8 C 81 % 1014,7 hPa 0,0 l/m 0 min 0 min 0 W/m 33,5 km/h (5 Bft)
24.12.2014 05:30 8,9 C 7,8 C 81 % 1014,6 hPa 0,0 l/m 0 min 0 min 0 W/m 46,0 km/h (6 Bft)
24.12.2014 05:32 8,9 C 7,8 C 81 % 1014,6 hPa 0,0 l/m 0 min 0 min 0 W/m 41,8 km/h (6 Bft)
24.12.2014 05:34 8,9 C 7,8 C 81 % 1014,7 hPa 0,0 l/m 0 min 0 min 0 W/m 29,3 km/h (5 Bft)
24.12.2014 05:36 8,9 C 7,8 C 81 % 1014,7 hPa 0,0 l/m 0 min 0 min 0 W/m 27,2 km/h (4 Bft)
24.12.2014 05:38 8,9 C 7,8 C 81 % 1014,7 hPa 0,0 l/m 0 min 0 min 0 W/m 31,4 km/h (5 Bft)
24.12.2014 05:40 8,9 C 7,8 C 82 % 1014,8 hPa 0,0 l/m 0 min 0 min 0 W/m 43,9 km/h (6 Bft)
24.12.2014 05:42 8,9 C 7,8 C 82 % 1014,7 hPa 0,0 l/m 0 min 0 min 0 W/m 35,6 km/h (5 Bft)
24.12.2014 05:44 8,9 C 7,8 C 82 % 1014,7 hPa 0,0 l/m 0 min 0 min 0 W/m 29,3 km/h (5 Bft)
24.12.2014 05:46 8,9 C 7,8 C 82 % 1014,7 hPa 0,0 l/m 0 min 0 min 0 W/m 27,2 km/h (4 Bft)
24.12.2014 05:48 8,9 C 7,8 C 82 % 1014,6 hPa 0,0 l/m 0 min 0 min 0 W/m 37,7 km/h (5 Bft)
24.12.2014 05:50 8,9 C 7,8 C 82 % 1014,6 hPa 0,0 l/m 0 min 0 min 0 W/m 41,8 km/h (6 Bft)
24.12.2014 05:52 8,9 C 7,8 C 82 % 1014,6 hPa 0,0 l/m 0 min 0 min 0 W/m 46,0 km/h (6 Bft)
24.12.2014 05:54 8,9 C 7,8 C 82 % 1014,5 hPa 0,0 l/m 0 min 0 min 0 W/m 43,9 km/h (6 Bft)
24.12.2014 05:56 8,9 C 7,8 C 82 % 1014,6 hPa 0,0 l/m 0 min 0 min 0 W/m 37,7 km/h (5 Bft)
24.12.2014 05:58 8,9 C 7,8 C 82 % 1014,6 hPa 0,0 l/m 0 min 0 min 0 W/m 46,0 km/h (6 Bft)
24.12.2014 06:00 8,9 C 7,8 C 82 % 1014,6 hPa 0,0 l/m 0 min 0 min 0 W/m 46,0 km/h (6 Bft)
24.12.2014 06:02 8,9 C 7,8 C 82 % 1014,5 hPa 0,0 l/m 0 min 0 min 0 W/m 46,0 km/h (6 Bft)
24.12.2014 06:05 8,9 C 7,8 C 82 % 1014,5 hPa 0,0 l/m 0 min 0 min 0 W/m 31,4 km/h (5 Bft)
24.12.2014 06:06 8,9 C 7,8 C 82 % 1014,5 hPa 0,0 l/m 0 min 0 min 0 W/m 35,6 km/h (5 Bft)
24.12.2014 06:08 8,9 C 7,8 C 82 % 1014,5 hPa 0,0 l/m 0 min 0 min 0 W/m 25,1 km/h (4 Bft)
24.12.2014 06:10 8,9 C 7,8 C 82 % 1014,6 hPa 0,0 l/m 0 min 0 min 0 W/m 41,8 km/h (6 Bft)
24.12.2014 06:12 8,9 C 7,8 C 82 % 1014,6 hPa 0,0 l/m 0 min 0 min 0 W/m 33,5 km/h (5 Bft)
24.12.2014 06:14 8,9 C 7,8 C 82 % 1014,6 hPa 0,0 l/m 0 min 0 min 0 W/m 46,0 km/h (6 Bft)
24.12.2014 06:16 8,9 C 7,8 C 82 % 1014,6 hPa 0,0 l/m 0 min 0 min 0 W/m 52,3 km/h (7 Bft)
24.12.2014 06:18 8,9 C 7,8 C 82 % 1014,6 hPa 0,0 l/m 0 min 0 min 0 W/m 46,0 km/h (6 Bft)
24.12.2014 06:20 8,9 C 7,8 C 82 % 1014,5 hPa 0,0 l/m 0 min 0 min 0 W/m 39,7 km/h (6 Bft)
24.12.2014 06:22 8,9 C 7,8 C 82 % 1014,5 hPa 0,0 l/m 0 min 0 min 0 W/m 39,7 km/h (6 Bft)
24.12.2014 06:24 8,9 C 7,8 C 82 % 1014,6 hPa 0,0 l/m 0 min 0 min 0 W/m 35,6 km/h (5 Bft)
24.12.2014 06:26 8,9 C 7,8 C 82 % 1014,6 hPa 0,0 l/m 0 min 0 min 0 W/m 39,7 km/h (6 Bft)
24.12.2014 06:28 8,9 C 7,8 C 82 % 1014,7 hPa 0,0 l/m 0 min 0 min 0 W/m 43,9 km/h (6 Bft)
24.12.2014 06:30 8,9 C 7,8 C 82 % 1014,6 hPa 0,0 l/m 0 min 0 min 0 W/m 39,7 km/h (6 Bft)
24.12.2014 06:32 8,9 C 7,8 C 82 % 1014,6 hPa 0,0 l/m 0 min 0 min 0 W/m 37,7 km/h (5 Bft)
24.12.2014 06:34 8,9 C 7,8 C 82 % 1014,5 hPa 0,0 l/m 0 min 0 min 0 W/m 37,7 km/h (5 Bft)
24.12.2014 06:36 8,9 C 7,8 C 82 % 1014,5 hPa 0,0 l/m 0 min 0 min 0 W/m 33,5 km/h (5 Bft)
24.12.2014 06:38 9,0 C 7,8 C 82 % 1014,5 hPa 0,0 l/m 0 min 0 min 0 W/m 43,9 km/h (6 Bft)
24.12.2014 06:40 9,0 C 7,8 C 82 % 1014,5 hPa 0,0 l/m 0 min 0 min 0 W/m 29,3 km/h (5 Bft)
24.12.2014 06:42 9,0 C 7,8 C 82 % 1014,5 hPa 0,0 l/m 0 min 0 min 0 W/m 37,7 km/h (5 Bft)
24.12.2014 06:44 9,0 C 7,8 C 82 % 1014,4 hPa 0,0 l/m 0 min 0 min 0 W/m 46,0 km/h (6 Bft)
24.12.2014 06:46 8,9 C 7,8 C 82 % 1014,4 hPa 0,0 l/m 0 min 0 min 0 W/m 27,2 km/h (4 Bft)
24.12.2014 06:48 8,9 C 7,8 C 82 % 1014,4 hPa 0,0 l/m 0 min 0 min 0 W/m 46,0 km/h (6 Bft)
24.12.2014 06:50 9,0 C 7,8 C 82 % 1014,4 hPa 0,0 l/m 0 min 0 min 0 W/m 43,9 km/h (6 Bft)
24.12.2014 06:52 8,9 C 7,8 C 82 % 1014,4 hPa 0,0 l/m 0 min 0 min 0 W/m 46,0 km/h (6 Bft)
24.12.2014 06:54 8,9 C 7,8 C 82 % 1014,4 hPa 0,0 l/m 0 min 0 min 0 W/m 43,9 km/h (6 Bft)
24.12.2014 06:56 8,9 C 7,8 C 82 % 1014,4 hPa 0,0 l/m 0 min 0 min 0 W/m 50,2 km/h (7 Bft)
24.12.2014 06:58 8,9 C 7,8 C 82 % 1014,4 hPa 0,0 l/m 0 min 0 min 0 W/m 41,8 km/h (6 Bft)
24.12.2014 07:00 8,9 C 7,8 C 82 % 1014,3 hPa 0,0 l/m 0 min 0 min 0 W/m 33,5 km/h (5 Bft)
24.12.2014 07:02 9,0 C 7,8 C 82 % 1014,4 hPa 0,0 l/m 0 min 0 min 0 W/m 35,6 km/h (5 Bft)
24.12.2014 07:04 9,0 C 7,8 C 82 % 1014,5 hPa 0,0 l/m 0 min 0 min 0 W/m 46,0 km/h (6 Bft)
24.12.2014 07:06 9,0 C 7,8 C 82 % 1014,3 hPa 0,0 l/m 0 min 0 min 0 W/m 41,8 km/h (6 Bft)
24.12.2014 07:08 8,9 C 7,8 C 82 % 1014,4 hPa 0,0 l/m 0 min 0 min 0 W/m 37,7 km/h (5 Bft)
24.12.2014 07:10 9,0 C 7,8 C 83 % 1014,4 hPa 0,0 l/m 0 min 0 min 0 W/m 35,6 km/h (5 Bft)
24.12.2014 07:12 8,9 C 7,8 C 83 % 1014,4 hPa 0,0 l/m 0 min 0 min 0 W/m 48,1 km/h (6 Bft)
24.12.2014 07:14 8,9 C 7,8 C 83 % 1014,4 hPa 0,0 l/m 0 min 0 min 0 W/m 46,0 km/h (6 Bft)
24.12.2014 07:16 8,9 C 7,8 C 83 % 1014,4 hPa 0,0 l/m 0 min 0 min 0 W/m 48,1 km/h (6 Bft)
24.12.2014 07:18 8,9 C 7,8 C 83 % 1014,5 hPa 0,0 l/m 0 min 0 min 0 W/m 39,7 km/h (6 Bft)
24.12.2014 07:20 8,9 C 7,8 C 83 % 1014,5 hPa 0,0 l/m 0 min 0 min 0 W/m 33,5 km/h (5 Bft)
24.12.2014 07:22 8,9 C 7,8 C 83 % 1014,4 hPa 0,0 l/m 0 min 0 min 0 W/m 48,1 km/h (6 Bft)
24.12.2014 07:24 8,9 C 7,8 C 84 % 1014,6 hPa 0,0 l/m 0 min 0 min 0 W/m 31,4 km/h (5 Bft)
24.12.2014 07:26 8,9 C 7,8 C 84 % 1014,5 hPa 0,0 l/m 0 min 0 min 0 W/m 29,3 km/h (5 Bft)
24.12.2014 07:28 8,9 C 7,8 C 84 % 1014,6 hPa 0,0 l/m 0 min 0 min 0 W/m 43,9 km/h (6 Bft)
24.12.2014 07:30 8,9 C 7,8 C 84 % 1014,5 hPa 0,0 l/m 0 min 0 min 0 W/m 33,5 km/h (5 Bft)
24.12.2014 07:32 8,9 C 7,8 C 84 % 1014,4 hPa 0,0 l/m 0 min 0 min 0 W/m 46,0 km/h (6 Bft)
24.12.2014 07:34 8,9 C 7,8 C 84 % 1014,6 hPa 0,0 l/m 0 min 0 min 0 W/m 35,6 km/h (5 Bft)
24.12.2014 07:36 8,9 C 7,8 C 84 % 1014,4 hPa 0,0 l/m 0 min 0 min 0 W/m 31,4 km/h (5 Bft)
24.12.2014 07:38 8,9 C 7,8 C 84 % 1014,5 hPa 0,0 l/m 0 min 0 min 0 W/m 35,6 km/h (5 Bft)
24.12.2014 07:40 8,9 C 7,8 C 84 % 1014,4 hPa 0,0 l/m 0 min 0 min 0 W/m 46,0 km/h (6 Bft)
24.12.2014 07:42 8,9 C 7,8 C 84 % 1014,4 hPa 0,0 l/m 0 min 0 min 0 W/m 39,7 km/h (6 Bft)
24.12.2014 07:44 9,0 C 7,8 C 84 % 1014,4 hPa 0,0 l/m 0 min 0 min 0 W/m 39,7 km/h (6 Bft)
24.12.2014 07:46 9,0 C 7,8 C 84 % 1014,4 hPa 0,0 l/m 0 min 0 min 0 W/m 48,1 km/h (6 Bft)
24.12.2014 07:48 9,0 C 7,2 C 84 % 1014,5 hPa 0,0 l/m 0 min 2 min 0 W/m 29,3 km/h (5 Bft)
24.12.2014 07:50 9,0 C 7,2 C 84 % 1014,5 hPa 0,0 l/m 0 min 2 min 0 W/m 33,5 km/h (5 Bft)
24.12.2014 07:52 8,9 C 6,7 C 84 % 1014,5 hPa 0,0 l/m 0 min 2 min 0 W/m 39,7 km/h (6 Bft)
24.12.2014 07:54 8,9 C 6,7 C 85 % 1014,5 hPa 0,0 l/m 0 min 2 min 0 W/m 43,9 km/h (6 Bft)
24.12.2014 07:56 8,8 C 6,7 C 85 % 1014,5 hPa 0,0 l/m 0 min 2 min 0 W/m 43,9 km/h (6 Bft)
24.12.2014 07:58 8,8 C 6,7 C 85 % 1014,5 hPa 0,0 l/m 0 min 2 min 0 W/m 39,7 km/h (6 Bft)
24.12.2014 08:00 8,7 C 6,7 C 86 % 1014,6 hPa 0,0 l/m 0 min 0 min 0 W/m 43,9 km/h (6 Bft)
24.12.2014 08:02 8,7 C 6,7 C 86 % 1014,5 hPa 0,0 l/m 0 min 0 min 0 W/m 31,4 km/h (5 Bft)
24.12.2014 08:04 8,7 C 6,7 C 86 % 1014,4 hPa 0,0 l/m 0 min 2 min 0 W/m 37,7 km/h (5 Bft)
24.12.2014 08:06 8,6 C 6,7 C 86 % 1014,5 hPa 0,0 l/m 0 min 2 min 0 W/m 37,7 km/h (5 Bft)
24.12.2014 08:08 8,6 C 6,7 C 86 % 1014,5 hPa 0,0 l/m 0 min 0 min 0 W/m 20,9 km/h (4 Bft)
24.12.2014 08:10 8,6 C 7,2 C 86 % 1014,4 hPa 0,0 l/m 0 min 0 min 0 W/m 27,2 km/h (4 Bft)
24.12.2014 08:12 8,6 C 7,2 C 86 % 1014,4 hPa 0,0 l/m 0 min 0 min 0 W/m 46,0 km/h (6 Bft)
24.12.2014 08:14 8,6 C 7,2 C 86 % 1014,4 hPa 0,0 l/m 0 min 0 min 0 W/m 35,6 km/h (5 Bft)
24.12.2014 08:16 8,6 C 7,2 C 86 % 1014,4 hPa 0,0 l/m 0 min 0 min 0 W/m 46,0 km/h (6 Bft)
24.12.2014 08:18 8,6 C 7,2 C 86 % 1014,5 hPa 0,0 l/m 0 min 0 min 0 W/m 33,5 km/h (5 Bft)
24.12.2014 08:20 8,5 C 7,2 C 86 % 1014,5 hPa 0,0 l/m 0 min 0 min 0 W/m 39,7 km/h (6 Bft)
24.12.2014 08:22 8,6 C 7,2 C 86 % 1014,4 hPa 0,0 l/m 0 min 0 min 0 W/m 41,8 km/h (6 Bft)
24.12.2014 08:24 8,6 C 7,2 C 86 % 1014,4 hPa 0,0 l/m 0 min 0 min 0 W/m 46,0 km/h (6 Bft)
24.12.2014 08:26 8,6 C 7,2 C 86 % 1014,4 hPa 0,0 l/m 0 min 0 min 0 W/m 37,7 km/h (5 Bft)
24.12.2014 08:28 8,6 C 7,2 C 86 % 1014,4 hPa 0,0 l/m 0 min 0 min 0 W/m 54,4 km/h (7 Bft)
24.12.2014 08:30 8,6 C 7,2 C 86 % 1014,5 hPa 0,0 l/m 0 min 0 min 0 W/m 43,9 km/h (6 Bft)
24.12.2014 08:32 8,6 C 7,2 C 86 % 1014,4 hPa 0,0 l/m 0 min 0 min 0 W/m 37,7 km/h (5 Bft)
24.12.2014 08:34 8,6 C 7,2 C 86 % 1014,5 hPa 0,0 l/m 0 min 0 min 0 W/m 48,1 km/h (6 Bft)
24.12.2014 08:36 8,6 C 7,2 C 85 % 1014,6 hPa 0,0 l/m 0 min 0 min 0 W/m 48,1 km/h (6 Bft)
24.12.2014 08:38 8,7 C 7,2 C 85 % 1014,7 hPa 0,0 l/m 0 min 0 min 0 W/m 35,6 km/h (5 Bft)
24.12.2014 08:40 8,7 C 7,2 C 85 % 1014,7 hPa 0,0 l/m 0 min 0 min 0 W/m 41,8 km/h (6 Bft)
24.12.2014 08:42 8,7 C 7,2 C 85 % 1014,7 hPa 0,0 l/m 0 min 0 min 0 W/m 29,3 km/h (5 Bft)
24.12.2014 08:44 8,7 C 7,2 C 85 % 1014,7 hPa 0,0 l/m 0 min 0 min 0 W/m 37,7 km/h (5 Bft)
24.12.2014 08:46 8,7 C 7,2 C 85 % 1014,6 hPa 0,0 l/m 0 min 0 min 0 W/m 54,4 km/h (7 Bft)
24.12.2014 08:48 8,7 C 7,2 C 85 % 1014,7 hPa 0,0 l/m 0 min 0 min 0 W/m 41,8 km/h (6 Bft)
24.12.2014 08:50 8,7 C 7,2 C 85 % 1014,7 hPa 0,0 l/m 0 min 0 min 0 W/m 39,7 km/h (6 Bft)
24.12.2014 08:52 8,7 C 7,2 C 86 % 1014,8 hPa 0,0 l/m 0 min 0 min 0 W/m 50,2 km/h (7 Bft)
24.12.2014 08:54 8,7 C 7,2 C 86 % 1014,7 hPa 0,0 l/m 0 min 0 min 5 W/m 54,4 km/h (7 Bft)
24.12.2014 08:56 8,7 C 7,2 C 86 % 1014,8 hPa 0,0 l/m 0 min 0 min 5 W/m 48,1 km/h (6 Bft)
24.12.2014 08:58 8,7 C 7,2 C 86 % 1014,8 hPa 0,0 l/m 0 min 0 min 5 W/m 37,7 km/h (5 Bft)
24.12.2014 09:00 8,7 C 7,2 C 86 % 1014,9 hPa 0,0 l/m 0 min 0 min 6 W/m 41,8 km/h (6 Bft)
24.12.2014 09:02 8,7 C 7,2 C 86 % 1014,8 hPa 0,0 l/m 0 min 0 min 7 W/m 39,7 km/h (6 Bft)
24.12.2014 09:04 8,7 C 7,2 C 86 % 1014,8 hPa 0,0 l/m 0 min 0 min 7 W/m 41,8 km/h (6 Bft)
24.12.2014 09:06 8,7 C 7,2 C 87 % 1014,8 hPa 0,0 l/m 0 min 0 min 7 W/m 33,5 km/h (5 Bft)
24.12.2014 09:08 8,7 C 7,2 C 87 % 1014,8 hPa 0,0 l/m 0 min 0 min 8 W/m 41,8 km/h (6 Bft)
24.12.2014 09:10 8,7 C 7,2 C 87 % 1014,8 hPa 0,0 l/m 0 min 2 min 7 W/m 54,4 km/h (7 Bft)
24.12.2014 09:12 8,7 C 7,2 C 87 % 1014,9 hPa 0,0 l/m 0 min 2 min 5 W/m 50,2 km/h (7 Bft)
24.12.2014 09:14 8,7 C 6,7 C 88 % 1014,9 hPa 0,0 l/m 0 min 2 min 5 W/m 41,8 km/h (6 Bft)
24.12.2014 09:16 8,7 C 6,7 C 88 % 1014,8 hPa 0,0 l/m 0 min 2 min 5 W/m 43,9 km/h (6 Bft)
24.12.2014 09:18 8,6 C 6,7 C 88 % 1014,9 hPa 0,0 l/m 0 min 2 min 7 W/m 46,0 km/h (6 Bft)
24.12.2014 09:20 8,6 C 6,7 C 88 % 1014,8 hPa 0,0 l/m 0 min 2 min 10 W/m 39,7 km/h (6 Bft)
24.12.2014 09:22 8,6 C 6,7 C 89 % 1014,9 hPa 0,0 l/m 0 min 2 min 10 W/m 43,9 km/h (6 Bft)
24.12.2014 09:24 8,5 C 6,7 C 89 % 1014,9 hPa 0,0 l/m 0 min 2 min 10 W/m 41,8 km/h (6 Bft)
24.12.2014 09:26 8,5 C 6,7 C 89 % 1014,9 hPa 0,0 l/m 0 min 2 min 10 W/m 48,1 km/h (6 Bft)
24.12.2014 09:28 8,4 C 6,7 C 89 % 1014,8 hPa 0,0 l/m 0 min 2 min 11 W/m 31,4 km/h (5 Bft)
24.12.2014 09:30 8,4 C 6,7 C 89 % 1014,9 hPa 0,0 l/m 0 min 2 min 12 W/m 37,7 km/h (5 Bft)
24.12.2014 09:32 8,4 C 6,7 C 90 % 1014,9 hPa 0,0 l/m 0 min 2 min 15 W/m 35,6 km/h (5 Bft)
24.12.2014 09:34 8,4 C 6,7 C 90 % 1014,8 hPa 0,0 l/m 0 min 2 min 15 W/m 33,5 km/h (5 Bft)
24.12.2014 09:36 8,4 C 6,7 C 90 % 1014,8 hPa 0,0 l/m 0 min 2 min 16 W/m 37,7 km/h (5 Bft)
24.12.2014 09:38 8,3 C 6,7 C 90 % 1014,8 hPa 0,0 l/m 0 min 2 min 16 W/m 35,6 km/h (5 Bft)
24.12.2014 09:40 8,3 C 6,7 C 90 % 1014,8 hPa 0,0 l/m 0 min 2 min 14 W/m 43,9 km/h (6 Bft)
24.12.2014 09:42 8,3 C 6,7 C 90 % 1014,8 hPa 0,0 l/m 0 min 0 min 14 W/m 31,4 km/h (5 Bft)
24.12.2014 09:44 8,3 C 6,7 C 91 % 1014,8 hPa 0,0 l/m 0 min 0 min 12 W/m 39,7 km/h (6 Bft)
24.12.2014 09:46 8,3 C 6,7 C 91 % 1014,8 hPa 0,0 l/m 0 min 2 min 12 W/m 31,4 km/h (5 Bft)
24.12.2014 09:48 8,3 C 6,7 C 91 % 1014,7 hPa 0,0 l/m 0 min 2 min 14 W/m 41,8 km/h (6 Bft)
24.12.2014 09:50 8,3 C 6,7 C 91 % 1014,7 hPa 0,0 l/m 0 min 2 min 18 W/m 50,2 km/h (7 Bft)
24.12.2014 09:52 8,3 C 6,7 C 91 % 1014,9 hPa 0,0 l/m 0 min 0 min 19 W/m 46,0 km/h (6 Bft)
24.12.2014 09:54 8,3 C 6,7 C 91 % 1014,8 hPa 0,0 l/m 0 min 0 min 18 W/m 37,7 km/h (5 Bft)
24.12.2014 09:56 8,3 C 6,7 C 91 % 1014,8 hPa 0,0 l/m 0 min 2 min 18 W/m 31,4 km/h (5 Bft)
24.12.2014 09:58 8,3 C 6,7 C 91 % 1014,7 hPa 0,0 l/m 0 min 0 min 15 W/m 39,7 km/h (6 Bft)
24.12.2014 10:00 8,3 C 6,7 C 91 % 1014,7 hPa 0,2 l/m 0 min 0 min 16 W/m 41,8 km/h (6 Bft)
24.12.2014 10:02 8,3 C 6,7 C 91 % 1014,7 hPa 0,0 l/m 0 min 0 min 13 W/m 27,2 km/h (4 Bft)
24.12.2014 10:04 8,3 C 6,7 C 91 % 1014,8 hPa 0,0 l/m 0 min 0 min 15 W/m 41,8 km/h (6 Bft)
24.12.2014 10:06 8,3 C 6,7 C 92 % 1014,8 hPa 0,0 l/m 0 min 2 min 14 W/m 37,7 km/h (5 Bft)
24.12.2014 10:08 8,3 C 6,7 C 92 % 1014,8 hPa 0,0 l/m 0 min 0 min 16 W/m 50,2 km/h (7 Bft)
24.12.2014 10:10 8,3 C 6,7 C 92 % 1014,7 hPa 0,0 l/m 0 min 0 min 18 W/m 35,6 km/h (5 Bft)
24.12.2014 10:12 8,3 C 6,7 C 92 % 1014,8 hPa 0,0 l/m 0 min 0 min 23 W/m 37,7 km/h (5 Bft)
24.12.2014 10:14 8,3 C 6,7 C 92 % 1014,8 hPa 0,0 l/m 0 min 0 min 20 W/m 35,6 km/h (5 Bft)
24.12.2014 10:16 8,3 C 6,7 C 92 % 1014,8 hPa 0,0 l/m 0 min 0 min 16 W/m 43,9 km/h (6 Bft)
24.12.2014 10:18 8,3 C 6,7 C 92 % 1014,8 hPa 0,0 l/m 0 min 0 min 14 W/m 46,0 km/h (6 Bft)
24.12.2014 10:20 8,3 C 6,7 C 92 % 1014,8 hPa 0,0 l/m 0 min 0 min 16 W/m 29,3 km/h (5 Bft)
24.12.2014 10:22 8,3 C 6,7 C 92 % 1014,8 hPa 0,0 l/m 0 min 0 min 18 W/m 43,9 km/h (6 Bft)
24.12.2014 10:24 8,3 C 6,7 C 92 % 1014,8 hPa 0,0 l/m 0 min 0 min 15 W/m 23,0 km/h (4 Bft)
24.12.2014 10:26 8,3 C 6,7 C 92 % 1014,9 hPa 0,0 l/m 0 min 2 min 20 W/m 41,8 km/h (6 Bft)
24.12.2014 10:28 8,3 C 6,7 C 92 % 1014,9 hPa 0,0 l/m 0 min 2 min 20 W/m 46,0 km/h (6 Bft)
24.12.2014 10:30 8,3 C 6,7 C 92 % 1015,0 hPa 0,0 l/m 0 min 2 min 20 W/m 33,5 km/h (5 Bft)
24.12.2014 10:32 8,3 C 6,7 C 92 % 1014,9 hPa 0,0 l/m 0 min 0 min 21 W/m 46,0 km/h (6 Bft)
24.12.2014 10:34 8,3 C 6,7 C 92 % 1014,9 hPa 0,0 l/m 0 min 0 min 24 W/m 46,0 km/h (6 Bft)
24.12.2014 10:36 8,3 C 7,2 C 92 % 1014,8 hPa 0,0 l/m 0 min 0 min 28 W/m 33,5 km/h (5 Bft)
24.12.2014 10:38 8,3 C 7,2 C 92 % 1014,8 hPa 0,0 l/m 0 min 0 min 38 W/m 54,4 km/h (7 Bft)
24.12.2014 10:40 8,3 C 7,2 C 92 % 1014,9 hPa 0,0 l/m 0 min 0 min 41 W/m 41,8 km/h (6 Bft)
24.12.2014 10:42 8,3 C 7,2 C 93 % 1015,0 hPa 0,0 l/m 0 min 0 min 34 W/m 37,7 km/h (5 Bft)
24.12.2014 10:44 8,4 C 7,2 C 93 % 1014,9 hPa 0,0 l/m 0 min 2 min 36 W/m 39,7 km/h (6 Bft)
24.12.2014 10:46 8,4 C 7,2 C 93 % 1014,9 hPa 0,0 l/m 0 min 2 min 41 W/m 41,8 km/h (6 Bft)
24.12.2014 10:48 8,4 C 7,2 C 93 % 1014,9 hPa 0,0 l/m 0 min 2 min 36 W/m 39,7 km/h (6 Bft)
24.12.2014 10:50 8,4 C 7,2 C 93 % 1014,9 hPa 0,0 l/m 0 min 0 min 32 W/m 35,6 km/h (5 Bft)
24.12.2014 10:52 8,4 C 7,2 C 93 % 1014,8 hPa 0,0 l/m 0 min 0 min 32 W/m 35,6 km/h (5 Bft)
24.12.2014 10:54 8,4 C 7,2 C 93 % 1014,9 hPa 0,0 l/m 0 min 0 min 37 W/m 35,6 km/h (5 Bft)
24.12.2014 10:56 8,4 C 7,2 C 93 % 1014,8 hPa 0,0 l/m 0 min 0 min 38 W/m 54,4 km/h (7 Bft)
24.12.2014 10:58 8,4 C 7,2 C 93 % 1014,8 hPa 0,0 l/m 0 min 0 min 46 W/m 46,0 km/h (6 Bft)
24.12.2014 11:00 8,5 C 7,2 C 93 % 1014,9 hPa 0,0 l/m 0 min 0 min 49 W/m 50,2 km/h (7 Bft)
24.12.2014 11:02 8,5 C 7,2 C 93 % 1014,8 hPa 0,0 l/m 0 min 0 min 45 W/m 48,1 km/h (6 Bft)
24.12.2014 11:04 8,5 C 7,2 C 93 % 1014,8 hPa 0,0 l/m 0 min 0 min 44 W/m 33,5 km/h (5 Bft)
24.12.2014 11:06 8,6 C 7,2 C 93 % 1014,9 hPa 0,0 l/m 0 min 0 min 40 W/m 48,1 km/h (6 Bft)
24.12.2014 11:08 8,6 C 7,2 C 93 % 1014,9 hPa 0,0 l/m 0 min 0 min 38 W/m 37,7 km/h (5 Bft)
24.12.2014 11:10 8,6 C 7,8 C 93 % 1014,8 hPa 0,0 l/m 0 min 0 min 41 W/m 41,8 km/h (6 Bft)
24.12.2014 11:12 8,6 C 7,8 C 93 % 1014,8 hPa 0,0 l/m 0 min 0 min 41 W/m 48,1 km/h (6 Bft)
24.12.2014 11:14 8,7 C 7,8 C 93 % 1014,8 hPa 0,0 l/m 0 min 0 min 37 W/m 48,1 km/h (6 Bft)
24.12.2014 11:16 8,7 C 7,8 C 93 % 1014,8 hPa 0,0 l/m 0 min 0 min 37 W/m 43,9 km/h (6 Bft)
24.12.2014 11:18 8,7 C 7,8 C 93 % 1014,9 hPa 0,0 l/m 0 min 0 min 35 W/m 43,9 km/h (6 Bft)
24.12.2014 11:20 8,7 C 7,8 C 93 % 1014,8 hPa 0,0 l/m 0 min 0 min 37 W/m 52,3 km/h (7 Bft)
24.12.2014 11:22 8,7 C 7,8 C 93 % 1014,8 hPa 0,0 l/m 0 min 0 min 33 W/m 46,0 km/h (6 Bft)
24.12.2014 11:24 8,7 C 7,8 C 93 % 1014,8 hPa 0,0 l/m 0 min 0 min 31 W/m 43,9 km/h (6 Bft)
24.12.2014 11:26 8,7 C 7,8 C 93 % 1014,8 hPa 0,0 l/m 0 min 0 min 28 W/m 54,4 km/h (7 Bft)
24.12.2014 11:28 8,7 C 7,8 C 93 % 1014,8 hPa 0,0 l/m 0 min 2 min 29 W/m 50,2 km/h (7 Bft)
24.12.2014 11:30 8,8 C 7,8 C 92 % 1014,8 hPa 0,0 l/m 0 min 0 min 31 W/m 35,6 km/h (5 Bft)
24.12.2014 11:32 8,8 C 7,8 C 92 % 1014,8 hPa 0,0 l/m 0 min 0 min 35 W/m 35,6 km/h (5 Bft)
24.12.2014 11:34 8,8 C 7,8 C 92 % 1014,7 hPa 0,0 l/m 0 min 2 min 33 W/m 37,7 km/h (5 Bft)
24.12.2014 11:36 8,8 C 7,8 C 93 % 1014,8 hPa 0,0 l/m 0 min 2 min 37 W/m 46,0 km/h (6 Bft)
24.12.2014 11:38 8,8 C 7,2 C 93 % 1014,8 hPa 0,0 l/m 0 min 2 min 40 W/m 43,9 km/h (6 Bft)
24.12.2014 11:40 8,8 C 7,2 C 93 % 1014,7 hPa 0,0 l/m 0 min 2 min 44 W/m 41,8 km/h (6 Bft)
24.12.2014 11:42 8,8 C 7,2 C 93 % 1014,6 hPa 0,0 l/m 0 min 0 min 43 W/m 50,2 km/h (7 Bft)
24.12.2014 11:44 8,8 C 7,2 C 93 % 1014,7 hPa 0,0 l/m 0 min 0 min 47 W/m 52,3 km/h (7 Bft)
24.12.2014 11:46 8,8 C 7,2 C 93 % 1014,8 hPa 0,0 l/m 0 min 0 min 55 W/m 48,1 km/h (6 Bft)
24.12.2014 11:48 8,8 C 7,2 C 93 % 1014,7 hPa 0,0 l/m 0 min 0 min 60 W/m 33,5 km/h (5 Bft)
24.12.2014 11:50 8,8 C 7,2 C 93 % 1014,6 hPa 0,0 l/m 0 min 0 min 64 W/m 33,5 km/h (5 Bft)
24.12.2014 11:52 8,8 C 7,2 C 93 % 1014,6 hPa 0,0 l/m 0 min 0 min 67 W/m 48,1 km/h (6 Bft)
24.12.2014 11:54 8,8 C 7,2 C 93 % 1014,6 hPa 0,0 l/m 0 min 0 min 62 W/m 46,0 km/h (6 Bft)
24.12.2014 11:56 8,8 C 7,2 C 93 % 1014,6 hPa 0,0 l/m 0 min 2 min 61 W/m 39,7 km/h (6 Bft)
24.12.2014 11:58 8,8 C 7,2 C 93 % 1014,6 hPa 0,0 l/m 0 min 2 min 54 W/m 48,1 km/h (6 Bft)
24.12.2014 12:00 8,7 C 7,2 C 93 % 1014,6 hPa 0,0 l/m 0 min 2 min 51 W/m 46,0 km/h (6 Bft)
24.12.2014 12:02 8,7 C 7,2 C 93 % 1014,6 hPa 0,0 l/m 0 min 2 min 49 W/m 41,8 km/h (6 Bft)
24.12.2014 12:05 8,7 C 7,2 C 94 % 1014,6 hPa 0,0 l/m 0 min 2 min 35 W/m 39,7 km/h (6 Bft)
24.12.2014 12:08 8,7 C 7,2 C 94 % 1014,6 hPa 0,0 l/m 0 min 2 min 43 W/m 46,0 km/h (6 Bft)
24.12.2014 12:10 8,7 C 7,2 C 94 % 1014,6 hPa 0,0 l/m 0 min 2 min 43 W/m 48,1 km/h (6 Bft)
24.12.2014 12:12 8,7 C 7,2 C 94 % 1014,5 hPa 0,0 l/m 0 min 2 min 43 W/m 35,6 km/h (5 Bft)
24.12.2014 12:14 8,7 C 7,2 C 94 % 1014,4 hPa 0,0 l/m 0 min 2 min 47 W/m 37,7 km/h (5 Bft)
24.12.2014 12:16 8,7 C 7,2 C 94 % 1014,5 hPa 0,0 l/m 0 min 2 min 45 W/m 39,7 km/h (6 Bft)
24.12.2014 12:18 8,7 C 7,2 C 94 % 1014,5 hPa 0,0 l/m 0 min 2 min 45 W/m 31,4 km/h (5 Bft)
24.12.2014 12:20 8,7 C 7,2 C 94 % 1014,5 hPa 0,0 l/m 0 min 2 min 43 W/m 39,7 km/h (6 Bft)
24.12.2014 12:22 8,7 C 7,2 C 94 % 1014,4 hPa 0,0 l/m 0 min 2 min 42 W/m 33,5 km/h (5 Bft)
24.12.2014 12:24 8,7 C 7,2 C 95 % 1014,4 hPa 0,2 l/m 0 min 2 min 45 W/m 50,2 km/h (7 Bft)
24.12.2014 12:26 8,7 C 7,2 C 95 % 1014,5 hPa 0,0 l/m 0 min 2 min 41 W/m 39,7 km/h (6 Bft)
24.12.2014 12:28 8,6 C 7,2 C 95 % 1014,5 hPa 0,0 l/m 0 min 2 min 40 W/m 37,7 km/h (5 Bft)
24.12.2014 12:30 8,6 C 7,2 C 95 % 1014,4 hPa 0,0 l/m 0 min 2 min 42 W/m 37,7 km/h (5 Bft)
24.12.2014 12:32 8,7 C 7,2 C 95 % 1014,4 hPa 0,0 l/m 0 min 2 min 42 W/m 33,5 km/h (5 Bft)
24.12.2014 12:34 8,7 C 7,2 C 95 % 1014,4 hPa 0,0 l/m 0 min 2 min 43 W/m 37,7 km/h (5 Bft)
24.12.2014 12:36 8,6 C 7,2 C 95 % 1014,3 hPa 0,0 l/m 0 min 2 min 42 W/m 35,6 km/h (5 Bft)
24.12.2014 12:38 8,7 C 7,2 C 95 % 1014,3 hPa 0,0 l/m 0 min 2 min 39 W/m 35,6 km/h (5 Bft)
24.12.2014 12:40 8,7 C 7,2 C 95 % 1014,3 hPa 0,0 l/m 0 min 2 min 38 W/m 33,5 km/h (5 Bft)
24.12.2014 12:42 8,7 C 7,2 C 95 % 1014,2 hPa 0,0 l/m 0 min 2 min 39 W/m 25,1 km/h (4 Bft)
24.12.2014 12:44 8,6 C 7,2 C 95 % 1014,3 hPa 0,0 l/m 0 min 2 min 35 W/m 48,1 km/h (6 Bft)
24.12.2014 12:46 8,7 C 7,2 C 95 % 1014,2 hPa 0,0 l/m 0 min 2 min 36 W/m 41,8 km/h (6 Bft)
24.12.2014 12:48 8,7 C 7,2 C 95 % 1014,2 hPa 0,0 l/m 0 min 2 min 39 W/m 33,5 km/h (5 Bft)
24.12.2014 12:50 8,6 C 7,2 C 95 % 1014,3 hPa 0,0 l/m 0 min 2 min 37 W/m 39,7 km/h (6 Bft)
24.12.2014 12:52 8,7 C 7,2 C 95 % 1014,2 hPa 0,0 l/m 0 min 2 min 40 W/m 29,3 km/h (5 Bft)
24.12.2014 12:54 8,6 C 7,2 C 95 % 1014,2 hPa 0,0 l/m 0 min 2 min 42 W/m 35,6 km/h (5 Bft)
24.12.2014 12:56 8,7 C 7,2 C 95 % 1014,2 hPa 0,0 l/m 0 min 2 min 51 W/m 33,5 km/h (5 Bft)
24.12.2014 12:58 8,7 C 7,2 C 96 % 1014,1 hPa 0,0 l/m 0 min 2 min 54 W/m 37,7 km/h (5 Bft)
24.12.2014 13:00 8,7 C 7,2 C 96 % 1014,2 hPa 0,0 l/m 0 min 2 min 64 W/m 43,9 km/h (6 Bft)
24.12.2014 13:02 8,7 C 7,2 C 96 % 1014,2 hPa 0,2 l/m 0 min 2 min 67 W/m 35,6 km/h (5 Bft)
24.12.2014 13:04 8,7 C 7,2 C 96 % 1014,1 hPa 0,0 l/m 0 min 2 min 66 W/m 35,6 km/h (5 Bft)
24.12.2014 13:06 8,7 C 7,2 C 96 % 1014,1 hPa 0,0 l/m 0 min 2 min 72 W/m 29,3 km/h (5 Bft)
24.12.2014 13:08 8,7 C 7,2 C 96 % 1014,1 hPa 0,0 l/m 0 min 2 min 73 W/m 39,7 km/h (6 Bft)
24.12.2014 13:10 8,7 C 7,2 C 96 % 1014,1 hPa 0,0 l/m 0 min 2 min 64 W/m 43,9 km/h (6 Bft)
24.12.2014 13:12 8,7 C 7,2 C 96 % 1014,2 hPa 0,0 l/m 0 min 2 min 59 W/m 33,5 km/h (5 Bft)
24.12.2014 13:14 8,7 C 7,2 C 96 % 1014,1 hPa 0,0 l/m 0 min 2 min 54 W/m 31,4 km/h (5 Bft)
24.12.2014 13:16 8,7 C 7,2 C 96 % 1014,1 hPa 0,0 l/m 0 min 2 min 45 W/m 48,1 km/h (6 Bft)
24.12.2014 13:18 8,7 C 7,2 C 96 % 1014,1 hPa 0,0 l/m 0 min 2 min 32 W/m 35,6 km/h (5 Bft)
24.12.2014 13:20 8,7 C 7,2 C 96 % 1014,1 hPa 0,0 l/m 0 min 2 min 35 W/m 35,6 km/h (5 Bft)
24.12.2014 13:22 8,7 C 7,2 C 96 % 1014,1 hPa 0,0 l/m 0 min 2 min 35 W/m 39,7 km/h (6 Bft)
24.12.2014 13:24 8,7 C 7,2 C 96 % 1014,1 hPa 0,0 l/m 0 min 2 min 26 W/m 31,4 km/h (5 Bft)
24.12.2014 13:26 8,7 C 7,2 C 96 % 1014,0 hPa 0,0 l/m 0 min 2 min 21 W/m 35,6 km/h (5 Bft)
24.12.2014 13:28 8,7 C 7,2 C 96 % 1014,1 hPa 0,0 l/m 0 min 2 min 25 W/m 46,0 km/h (6 Bft)
24.12.2014 13:30 8,7 C 7,2 C 96 % 1014,0 hPa 0,0 l/m 0 min 2 min 24 W/m 39,7 km/h (6 Bft)
24.12.2014 13:32 8,7 C 7,2 C 96 % 1013,9 hPa 0,0 l/m 0 min 2 min 22 W/m 41,8 km/h (6 Bft)
24.12.2014 13:34 8,7 C 7,2 C 96 % 1014,0 hPa 0,0 l/m 0 min 2 min 24 W/m 39,7 km/h (6 Bft)
24.12.2014 13:36 8,7 C 7,2 C 96 % 1014,0 hPa 0,0 l/m 0 min 2 min 20 W/m 41,8 km/h (6 Bft)
24.12.2014 13:38 8,7 C 7,2 C 96 % 1014,1 hPa 0,2 l/m 0 min 2 min 20 W/m 46,0 km/h (6 Bft)
24.12.2014 13:40 8,7 C 7,2 C 96 % 1013,8 hPa 0,0 l/m 0 min 2 min 20 W/m 43,9 km/h (6 Bft)
24.12.2014 13:42 8,7 C 7,2 C 96 % 1013,9 hPa 0,0 l/m 0 min 2 min 17 W/m 41,8 km/h (6 Bft)
24.12.2014 13:44 8,7 C 7,2 C 96 % 1013,9 hPa 0,0 l/m 0 min 2 min 17 W/m 48,1 km/h (6 Bft)
24.12.2014 13:46 8,7 C 7,2 C 96 % 1014,0 hPa 0,0 l/m 0 min 2 min 15 W/m 41,8 km/h (6 Bft)
24.12.2014 13:48 8,7 C 7,2 C 96 % 1013,9 hPa 0,0 l/m 0 min 2 min 12 W/m 41,8 km/h (6 Bft)
24.12.2014 13:50 8,7 C 7,2 C 96 % 1013,9 hPa 0,0 l/m 0 min 2 min 12 W/m 27,2 km/h (4 Bft)
24.12.2014 13:52 8,7 C 7,2 C 96 % 1013,9 hPa 0,0 l/m 0 min 2 min 12 W/m 41,8 km/h (6 Bft)
24.12.2014 13:54 8,7 C 7,2 C 96 % 1014,0 hPa 0,0 l/m 0 min 2 min 14 W/m 29,3 km/h (5 Bft)
24.12.2014 13:56 8,7 C 7,2 C 96 % 1013,9 hPa 0,0 l/m 0 min 2 min 18 W/m 31,4 km/h (5 Bft)
24.12.2014 13:58 8,8 C 7,2 C 96 % 1013,9 hPa 0,0 l/m 0 min 2 min 23 W/m 33,5 km/h (5 Bft)
24.12.2014 14:00 8,8 C 7,2 C 96 % 1014,0 hPa 0,0 l/m 0 min 2 min 32 W/m 39,7 km/h (6 Bft)
24.12.2014 14:02 8,8 C 7,2 C 96 % 1014,0 hPa 0,2 l/m 0 min 2 min 27 W/m 35,6 km/h (5 Bft)
24.12.2014 14:04 8,8 C 7,2 C 96 % 1014,0 hPa 0,0 l/m 0 min 2 min 27 W/m 35,6 km/h (5 Bft)
24.12.2014 14:06 8,8 C 7,2 C 96 % 1013,9 hPa 0,0 l/m 0 min 2 min 30 W/m 35,6 km/h (5 Bft)
24.12.2014 14:08 8,8 C 7,2 C 97 % 1013,9 hPa 0,0 l/m 0 min 2 min 30 W/m 46,0 km/h (6 Bft)
24.12.2014 14:10 8,8 C 7,2 C 97 % 1013,9 hPa 0,0 l/m 0 min 2 min 26 W/m 31,4 km/h (5 Bft)
24.12.2014 14:12 8,8 C 7,2 C 97 % 1013,9 hPa 0,0 l/m 0 min 2 min 30 W/m 35,6 km/h (5 Bft)
24.12.2014 14:14 8,8 C 7,2 C 97 % 1013,9 hPa 0,0 l/m 0 min 2 min 28 W/m 31,4 km/h (5 Bft)
24.12.2014 14:16 8,8 C 7,2 C 97 % 1013,9 hPa 0,0 l/m 0 min 2 min 34 W/m 31,4 km/h (5 Bft)
24.12.2014 14:18 8,8 C 7,2 C 97 % 1013,9 hPa 0,2 l/m 0 min 2 min 30 W/m 37,7 km/h (5 Bft)
24.12.2014 14:20 8,8 C 7,2 C 97 % 1013,9 hPa 0,0 l/m 0 min 2 min 26 W/m 41,8 km/h (6 Bft)
24.12.2014 14:22 8,8 C 7,2 C 97 % 1014,0 hPa 0,0 l/m 0 min 2 min 21 W/m 35,6 km/h (5 Bft)
24.12.2014 14:24 8,8 C 7,2 C 97 % 1013,9 hPa 0,0 l/m 0 min 2 min 20 W/m 35,6 km/h (5 Bft)
24.12.2014 14:26 8,8 C 7,2 C 97 % 1013,8 hPa 0,0 l/m 0 min 2 min 20 W/m 37,7 km/h (5 Bft)
24.12.2014 14:28 8,8 C 7,2 C 97 % 1013,9 hPa 0,0 l/m 0 min 2 min 17 W/m 46,0 km/h (6 Bft)
24.12.2014 14:30 8,8 C 7,2 C 97 % 1013,9 hPa 0,0 l/m 0 min 2 min 18 W/m 37,7 km/h (5 Bft)
24.12.2014 14:32 8,8 C 7,2 C 97 % 1013,9 hPa 0,0 l/m 0 min 2 min 21 W/m 37,7 km/h (5 Bft)
24.12.2014 14:34 8,8 C 7,8 C 97 % 1013,7 hPa 0,0 l/m 0 min 2 min 26 W/m 33,5 km/h (5 Bft)
24.12.2014 14:36 8,8 C 7,8 C 97 % 1013,8 hPa 0,0 l/m 0 min 2 min 30 W/m 39,7 km/h (6 Bft)
24.12.2014 14:38 8,8 C 7,8 C 97 % 1013,8 hPa 0,0 l/m 0 min 2 min 27 W/m 37,7 km/h (5 Bft)
24.12.2014 14:40 8,8 C 7,8 C 97 % 1013,6 hPa 0,0 l/m 0 min 2 min 34 W/m 39,7 km/h (6 Bft)
24.12.2014 14:42 8,9 C 7,8 C 97 % 1013,7 hPa 0,0 l/m 0 min 2 min 29 W/m 35,6 km/h (5 Bft)
24.12.2014 14:44 8,8 C 7,8 C 97 % 1013,8 hPa 0,0 l/m 0 min 0 min 26 W/m 41,8 km/h (6 Bft)
24.12.2014 14:46 8,9 C 7,8 C 97 % 1013,8 hPa 0,0 l/m 0 min 0 min 29 W/m 29,3 km/h (5 Bft)
24.12.2014 14:48 8,9 C 7,8 C 97 % 1014,0 hPa 0,0 l/m 0 min 0 min 22 W/m 35,6 km/h (5 Bft)
24.12.2014 14:50 8,9 C 7,8 C 97 % 1013,9 hPa 0,0 l/m 0 min 0 min 15 W/m 37,7 km/h (5 Bft)
24.12.2014 14:52 8,9 C 7,8 C 97 % 1013,9 hPa 0,0 l/m 0 min 0 min 15 W/m 35,6 km/h (5 Bft)
24.12.2014 14:54 8,9 C 7,8 C 97 % 1013,9 hPa 0,0 l/m 0 min 0 min 18 W/m 35,6 km/h (5 Bft)
24.12.2014 14:56 8,9 C 7,8 C 97 % 1014,0 hPa 0,0 l/m 0 min 0 min 16 W/m 41,8 km/h (6 Bft)
24.12.2014 14:58 8,9 C 7,8 C 97 % 1014,0 hPa 0,0 l/m 0 min 0 min 16 W/m 29,3 km/h (5 Bft)
24.12.2014 15:00 8,9 C 7,8 C 97 % 1013,9 hPa 0,0 l/m 0 min 0 min 13 W/m 35,6 km/h (5 Bft)
24.12.2014 15:02 8,9 C 7,8 C 97 % 1013,9 hPa 0,0 l/m 0 min 0 min 14 W/m 31,4 km/h (5 Bft)
24.12.2014 15:04 8,9 C 7,8 C 97 % 1014,1 hPa 0,0 l/m 0 min 0 min 15 W/m 31,4 km/h (5 Bft)
24.12.2014 15:06 8,9 C 7,8 C 97 % 1014,0 hPa 0,0 l/m 0 min 0 min 13 W/m 39,7 km/h (6 Bft)
24.12.2014 15:08 8,9 C 7,8 C 97 % 1014,1 hPa 0,0 l/m 0 min 0 min 13 W/m 37,7 km/h (5 Bft)
24.12.2014 15:10 8,9 C 7,8 C 97 % 1014,1 hPa 0,0 l/m 0 min 0 min 13 W/m 31,4 km/h (5 Bft)
24.12.2014 15:12 8,9 C 7,8 C 97 % 1014,1 hPa 0,0 l/m 0 min 0 min 13 W/m 37,7 km/h (5 Bft)
24.12.2014 15:14 8,9 C 7,8 C 97 % 1014,1 hPa 0,0 l/m 0 min 0 min 13 W/m 31,4 km/h (5 Bft)
24.12.2014 15:16 8,9 C 7,8 C 97 % 1014,1 hPa 0,0 l/m 0 min 0 min 12 W/m 29,3 km/h (5 Bft)
24.12.2014 15:18 8,9 C 7,8 C 97 % 1014,1 hPa 0,0 l/m 0 min 0 min 11 W/m 29,3 km/h (5 Bft)
24.12.2014 15:20 8,9 C 7,8 C 97 % 1014,1 hPa 0,2 l/m 0 min 0 min 11 W/m 37,7 km/h (5 Bft)
24.12.2014 15:22 8,9 C 7,8 C 97 % 1014,1 hPa 0,0 l/m 0 min 0 min 12 W/m 37,7 km/h (5 Bft)
24.12.2014 15:24 8,9 C 7,8 C 97 % 1014,2 hPa 0,0 l/m 0 min 0 min 15 W/m 50,2 km/h (7 Bft)
24.12.2014 15:26 9,0 C 7,8 C 97 % 1014,2 hPa 0,0 l/m 0 min 0 min 10 W/m 31,4 km/h (5 Bft)
24.12.2014 15:28 9,0 C 7,8 C 97 % 1014,2 hPa 0,0 l/m 0 min 0 min 11 W/m 41,8 km/h (6 Bft)
24.12.2014 15:30 9,0 C 7,8 C 97 % 1014,2 hPa 0,0 l/m 0 min 2 min 11 W/m 37,7 km/h (5 Bft)
24.12.2014 15:32 9,0 C 7,8 C 97 % 1014,2 hPa 0,0 l/m 0 min 2 min 12 W/m 29,3 km/h (5 Bft)
24.12.2014 15:34 9,0 C 7,8 C 97 % 1014,1 hPa 0,0 l/m 0 min 0 min 9 W/m 37,7 km/h (5 Bft)
24.12.2014 15:36 9,0 C 7,8 C 97 % 1014,3 hPa 0,0 l/m 0 min 0 min 8 W/m 31,4 km/h (5 Bft)
24.12.2014 15:38 9,0 C 7,8 C 97 % 1014,3 hPa 0,0 l/m 0 min 0 min 8 W/m 35,6 km/h (5 Bft)
24.12.2014 15:40 9,0 C 7,8 C 97 % 1014,3 hPa 0,0 l/m 0 min 0 min 7 W/m 31,4 km/h (5 Bft)
24.12.2014 15:42 9,0 C 7,8 C 97 % 1014,2 hPa 0,0 l/m 0 min 0 min 8 W/m 33,5 km/h (5 Bft)
24.12.2014 15:44 9,0 C 7,8 C 97 % 1014,3 hPa 0,0 l/m 0 min 0 min 9 W/m 29,3 km/h (5 Bft)
24.12.2014 15:46 9,0 C 7,8 C 97 % 1014,3 hPa 0,0 l/m 0 min 0 min 10 W/m 29,3 km/h (5 Bft)
24.12.2014 15:48 9,0 C 7,8 C 97 % 1014,3 hPa 0,0 l/m 0 min 0 min 9 W/m 20,9 km/h (4 Bft)
24.12.2014 15:50 9,1 C 7,8 C 97 % 1014,3 hPa 0,0 l/m 0 min 0 min 10 W/m 33,5 km/h (5 Bft)
24.12.2014 15:52 9,0 C 7,8 C 97 % 1014,3 hPa 0,0 l/m 0 min 0 min 8 W/m 25,1 km/h (4 Bft)
24.12.2014 15:54 9,1 C 7,8 C 97 % 1014,4 hPa 0,0 l/m 0 min 0 min 7 W/m 29,3 km/h (5 Bft)
24.12.2014 15:56 9,0 C 7,8 C 97 % 1014,4 hPa 0,0 l/m 0 min 0 min 6 W/m 33,5 km/h (5 Bft)
24.12.2014 15:58 9,1 C 7,8 C 97 % 1014,4 hPa 0,0 l/m 0 min 0 min 6 W/m 25,1 km/h (4 Bft)
24.12.2014 16:00 9,1 C 7,8 C 97 % 1014,4 hPa 0,0 l/m 0 min 0 min 1 W/m 20,9 km/h (4 Bft)
24.12.2014 16:02 9,1 C 7,8 C 97 % 1014,4 hPa 0,0 l/m 0 min 0 min 0 W/m 35,6 km/h (5 Bft)
24.12.2014 16:04 9,1 C 7,8 C 98 % 1014,4 hPa 0,0 l/m 0 min 0 min 0 W/m 25,1 km/h (4 Bft)
24.12.2014 16:06 9,1 C 7,8 C 97 % 1014,4 hPa 0,0 l/m 0 min 0 min 0 W/m 18,8 km/h (3 Bft)
24.12.2014 16:08 9,1 C 7,8 C 97 % 1014,6 hPa 0,0 l/m 0 min 2 min 0 W/m 25,1 km/h (4 Bft)
24.12.2014 16:10 9,1 C 7,8 C 98 % 1014,8 hPa 0,2 l/m 0 min 2 min 0 W/m 18,8 km/h (3 Bft)
24.12.2014 16:12 9,0 C 7,2 C 97 % 1014,8 hPa 0,6 l/m 0 min 2 min 0 W/m 25,1 km/h (4 Bft)
24.12.2014 16:14 8,9 C 7,2 C 97 % 1014,9 hPa 0,2 l/m 0 min 0 min 0 W/m 23,0 km/h (4 Bft)
24.12.2014 16:16 8,9 C 7,2 C 97 % 1014,9 hPa 0,0 l/m 0 min 0 min 0 W/m 23,0 km/h (4 Bft)
24.12.2014 16:18 8,8 C 6,7 C 97 % 1015,0 hPa 0,2 l/m 0 min 2 min 0 W/m 25,1 km/h (4 Bft)
24.12.2014 16:20 8,7 C 6,7 C 97 % 1015,0 hPa 0,0 l/m 0 min 0 min 0 W/m 16,7 km/h (3 Bft)
24.12.2014 16:22 8,6 C 6,7 C 97 % 1015,0 hPa 0,2 l/m 0 min 0 min 0 W/m 14,6 km/h (3 Bft)
24.12.2014 16:24 8,6 C 6,7 C 97 % 1014,9 hPa 0,0 l/m 0 min 0 min 0 W/m 12,6 km/h (3 Bft)
24.12.2014 16:26 8,5 C 6,7 C 97 % 1014,9 hPa 0,0 l/m 0 min 0 min 0 W/m 10,5 km/h (2 Bft)
24.12.2014 16:28 8,4 C 6,7 C 97 % 1015,0 hPa 0,0 l/m 0 min 2 min 0 W/m 10,5 km/h (2 Bft)
24.12.2014 16:30 8,3 C 6,7 C 97 % 1015,0 hPa 0,0 l/m 0 min 0 min 0 W/m 12,6 km/h (3 Bft)
24.12.2014 16:32 8,3 C 6,7 C 97 % 1015,1 hPa 0,0 l/m 0 min 0 min 0 W/m 8,4 km/h (2 Bft)
24.12.2014 16:34 8,2 C 6,7 C 97 % 1015,2 hPa 0,0 l/m 0 min 0 min 0 W/m 12,6 km/h (3 Bft)
24.12.2014 16:36 8,2 C 6,7 C 97 % 1015,2 hPa 0,0 l/m 0 min 0 min 0 W/m 14,6 km/h (3 Bft)
24.12.2014 16:38 8,1 C 6,7 C 97 % 1015,2 hPa 0,2 l/m 0 min 0 min 0 W/m 18,8 km/h (3 Bft)
24.12.2014 16:40 8,1 C 6,1 C 97 % 1015,2 hPa 0,0 l/m 0 min 0 min 0 W/m 16,7 km/h (3 Bft)
24.12.2014 16:42 8,0 C 6,7 C 97 % 1015,2 hPa 0,0 l/m 0 min 0 min 0 W/m 12,6 km/h (3 Bft)
24.12.2014 16:44 7,9 C 6,1 C 97 % 1015,2 hPa 0,0 l/m 0 min 0 min 0 W/m 20,9 km/h (4 Bft)
24.12.2014 16:46 7,9 C 6,1 C 97 % 1015,3 hPa 0,0 l/m 0 min 0 min 0 W/m 16,7 km/h (3 Bft)
24.12.2014 16:48 7,8 C 6,1 C 97 % 1015,3 hPa 0,0 l/m 0 min 0 min 0 W/m 14,6 km/h (3 Bft)
24.12.2014 16:50 7,8 C 6,1 C 97 % 1015,3 hPa 0,0 l/m 0 min 0 min 0 W/m 16,7 km/h (3 Bft)
24.12.2014 16:52 7,7 C 6,1 C 97 % 1015,3 hPa 0,0 l/m 0 min 0 min 0 W/m 12,6 km/h (3 Bft)
24.12.2014 16:54 7,7 C 6,1 C 97 % 1015,2 hPa 0,0 l/m 0 min 0 min 0 W/m 16,7 km/h (3 Bft)
24.12.2014 16:56 7,6 C 6,1 C 97 % 1015,2 hPa 0,0 l/m 0 min 0 min 0 W/m 10,5 km/h (2 Bft)
24.12.2014 16:58 7,6 C 6,1 C 97 % 1015,2 hPa 0,0 l/m 0 min 0 min 0 W/m 8,4 km/h (2 Bft)
24.12.2014 17:00 7,6 C 6,1 C 97 % 1015,2 hPa 0,0 l/m 0 min 0 min 0 W/m 8,4 km/h (2 Bft)
24.12.2014 17:02 7,5 C 6,1 C 97 % 1015,3 hPa 0,0 l/m 0 min 0 min 0 W/m 12,6 km/h (3 Bft)
24.12.2014 17:04 7,5 C 6,1 C 97 % 1015,4 hPa 0,0 l/m 0 min 0 min 0 W/m 12,6 km/h (3 Bft)
24.12.2014 17:06 7,5 C 6,1 C 97 % 1015,4 hPa 0,0 l/m 0 min 0 min 0 W/m 18,8 km/h (3 Bft)
24.12.2014 17:08 7,4 C 6,1 C 97 % 1015,5 hPa 0,0 l/m 0 min 0 min 0 W/m 14,6 km/h (3 Bft)
24.12.2014 17:10 7,4 C 6,1 C 97 % 1015,4 hPa 0,0 l/m 0 min 0 min 0 W/m 14,6 km/h (3 Bft)
24.12.2014 17:12 7,4 C 6,1 C 97 % 1015,4 hPa 0,0 l/m 0 min 0 min 0 W/m 16,7 km/h (3 Bft)
24.12.2014 17:14 7,3 C 6,1 C 97 % 1015,4 hPa 0,0 l/m 0 min 0 min 0 W/m 14,6 km/h (3 Bft)
24.12.2014 17:16 7,3 C 5,6 C 97 % 1015,4 hPa 0,0 l/m 0 min 0 min 0 W/m 10,5 km/h (2 Bft)
24.12.2014 17:18 7,3 C 5,6 C 97 % 1015,3 hPa 0,0 l/m 0 min 0 min 0 W/m 8,4 km/h (2 Bft)
24.12.2014 17:20 7,2 C 5,6 C 97 % 1015,3 hPa 0,0 l/m 0 min 0 min 0 W/m 8,4 km/h (2 Bft)
24.12.2014 17:22 7,2 C 5,6 C 97 % 1015,4 hPa 0,0 l/m 0 min 0 min 0 W/m 10,5 km/h (2 Bft)
24.12.2014 17:24 7,2 C 5,6 C 97 % 1015,4 hPa 0,0 l/m 0 min 0 min 0 W/m 8,4 km/h (2 Bft)
24.12.2014 17:26 7,2 C 5,6 C 97 % 1015,5 hPa 0,0 l/m 0 min 2 min 0 W/m 8,4 km/h (2 Bft)
24.12.2014 17:28 7,1 C 5,6 C 97 % 1015,4 hPa 0,0 l/m 0 min 2 min 0 W/m 8,4 km/h (2 Bft)
24.12.2014 17:30 7,1 C 5,6 C 97 % 1015,5 hPa 0,0 l/m 0 min 2 min 0 W/m 12,6 km/h (3 Bft)
24.12.2014 17:32 7,1 C 5,6 C 97 % 1015,5 hPa 0,2 l/m 0 min 2 min 0 W/m 12,6 km/h (3 Bft)
24.12.2014 17:34 7,1 C 5,6 C 97 % 1015,6 hPa 0,0 l/m 0 min 2 min 0 W/m 12,6 km/h (3 Bft)
24.12.2014 17:36 7,0 C 5,6 C 97 % 1015,6 hPa 0,0 l/m 0 min 2 min 0 W/m 12,6 km/h (3 Bft)
24.12.2014 17:38 7,0 C 5,6 C 97 % 1015,8 hPa 0,0 l/m 0 min 2 min 0 W/m 12,6 km/h (3 Bft)
24.12.2014 17:40 7,0 C 5,6 C 97 % 1015,7 hPa 0,0 l/m 0 min 2 min 0 W/m 14,6 km/h (3 Bft)
24.12.2014 17:42 7,0 C 5,6 C 97 % 1015,7 hPa 0,0 l/m 0 min 2 min 0 W/m 10,5 km/h (2 Bft)
24.12.2014 17:44 6,9 C 5,6 C 97 % 1015,8 hPa 0,0 l/m 0 min 2 min 0 W/m 8,4 km/h (2 Bft)
24.12.2014 17:46 6,9 C 5,6 C 97 % 1015,7 hPa 0,0 l/m 0 min 2 min 0 W/m 12,6 km/h (3 Bft)
24.12.2014 17:48 6,9 C 5,6 C 97 % 1015,7 hPa 0,0 l/m 0 min 2 min 0 W/m 10,5 km/h (2 Bft)
24.12.2014 17:50 6,9 C 5,6 C 97 % 1015,8 hPa 0,0 l/m 0 min 2 min 0 W/m 6,3 km/h (2 Bft)
24.12.2014 17:52 6,9 C 5,6 C 97 % 1015,8 hPa 0,0 l/m 0 min 2 min 0 W/m 4,2 km/h (1 Bft)
24.12.2014 17:54 6,9 C 5,6 C 97 % 1015,8 hPa 0,0 l/m 0 min 2 min 0 W/m 6,3 km/h (2 Bft)
24.12.2014 17:56 6,9 C 5,6 C 97 % 1015,8 hPa 0,0 l/m 0 min 2 min 0 W/m 6,3 km/h (2 Bft)
24.12.2014 17:58 6,9 C 5,6 C 97 % 1015,8 hPa 0,0 l/m 0 min 2 min 0 W/m 10,5 km/h (2 Bft)
24.12.2014 18:00 6,9 C 5,6 C 97 % 1015,9 hPa 0,0 l/m 0 min 2 min 0 W/m 10,5 km/h (2 Bft)
24.12.2014 18:02 6,9 C 5,6 C 97 % 1015,9 hPa 0,0 l/m 0 min 2 min 0 W/m 10,5 km/h (2 Bft)
24.12.2014 18:05 6,9 C 5,6 C 97 % 1016,1 hPa 0,2 l/m 0 min 2 min 0 W/m 18,8 km/h (3 Bft)
24.12.2014 18:08 6,9 C 5,6 C 97 % 1016,1 hPa 0,2 l/m 0 min 2 min 0 W/m 18,8 km/h (3 Bft)
24.12.2014 18:10 6,9 C 5,6 C 97 % 1016,0 hPa 0,0 l/m 0 min 2 min 0 W/m 18,8 km/h (3 Bft)
24.12.2014 18:12 6,9 C 5,6 C 97 % 1015,9 hPa 0,0 l/m 0 min 2 min 0 W/m 12,6 km/h (3 Bft)
24.12.2014 18:14 6,9 C 5,6 C 97 % 1016,0 hPa 0,0 l/m 0 min 2 min 0 W/m 12,6 km/h (3 Bft)
24.12.2014 18:16 6,8 C 5,6 C 97 % 1016,0 hPa 0,0 l/m 0 min 2 min 0 W/m 8,4 km/h (2 Bft)
24.12.2014 18:18 6,9 C 5,6 C 97 % 1016,1 hPa 0,0 l/m 0 min 2 min 0 W/m 8,4 km/h (2 Bft)
24.12.2014 18:20 6,9 C 5,6 C 97 % 1016,1 hPa 0,0 l/m 0 min 2 min 0 W/m 16,7 km/h (3 Bft)
24.12.2014 18:22 6,9 C 5,6 C 97 % 1016,0 hPa 0,0 l/m 0 min 2 min 0 W/m 14,6 km/h (3 Bft)
24.12.2014 18:24 6,9 C 5,6 C 97 % 1016,1 hPa 0,0 l/m 0 min 2 min 0 W/m 10,5 km/h (2 Bft)
24.12.2014 18:26 6,9 C 5,6 C 97 % 1016,1 hPa 0,0 l/m 0 min 2 min 0 W/m 14,6 km/h (3 Bft)
24.12.2014 18:28 6,8 C 5,6 C 97 % 1016,2 hPa 0,0 l/m 0 min 2 min 0 W/m 10,5 km/h (2 Bft)
24.12.2014 18:30 6,8 C 5,6 C 97 % 1016,0 hPa 0,0 l/m 0 min 2 min 0 W/m 16,7 km/h (3 Bft)
24.12.2014 18:32 6,9 C 5,6 C 97 % 1016,0 hPa 0,0 l/m 0 min 2 min 0 W/m 12,6 km/h (3 Bft)
24.12.2014 18:34 6,9 C 5,6 C 97 % 1016,1 hPa 0,0 l/m 0 min 2 min 0 W/m 10,5 km/h (2 Bft)
24.12.2014 18:36 6,8 C 5,6 C 97 % 1016,2 hPa 0,0 l/m 0 min 2 min 0 W/m 16,7 km/h (3 Bft)
24.12.2014 18:38 6,9 C 5,6 C 97 % 1016,3 hPa 0,0 l/m 0 min 2 min 0 W/m 12,6 km/h (3 Bft)
24.12.2014 18:40 6,9 C 5,6 C 97 % 1016,4 hPa 0,0 l/m 0 min 2 min 0 W/m 18,8 km/h (3 Bft)
24.12.2014 18:42 6,9 C 5,6 C 97 % 1016,4 hPa 0,0 l/m 0 min 2 min 0 W/m 18,8 km/h (3 Bft)
24.12.2014 18:44 6,9 C 5,6 C 97 % 1016,4 hPa 0,0 l/m 0 min 2 min 0 W/m 16,7 km/h (3 Bft)
24.12.2014 18:46 6,9 C 5,6 C 97 % 1016,5 hPa 0,0 l/m 0 min 2 min 0 W/m 14,6 km/h (3 Bft)
24.12.2014 18:48 6,9 C 5,6 C 97 % 1016,4 hPa 0,0 l/m 0 min 2 min 0 W/m 18,8 km/h (3 Bft)
24.12.2014 18:50 6,9 C 5,6 C 97 % 1016,4 hPa 0,0 l/m 0 min 2 min 0 W/m 14,6 km/h (3 Bft)
24.12.2014 18:52 6,9 C 5,6 C 97 % 1016,6 hPa 0,0 l/m 0 min 2 min 0 W/m 18,8 km/h (3 Bft)
24.12.2014 18:54 6,9 C 5,6 C 97 % 1016,6 hPa 0,0 l/m 0 min 2 min 0 W/m 18,8 km/h (3 Bft)
24.12.2014 18:56 6,9 C 5,6 C 97 % 1016,7 hPa 0,0 l/m 0 min 2 min 0 W/m 23,0 km/h (4 Bft)
24.12.2014 18:58 6,9 C 5,6 C 97 % 1016,7 hPa 0,0 l/m 0 min 2 min 0 W/m 29,3 km/h (5 Bft)
24.12.2014 19:00 6,9 C 5,6 C 97 % 1016,7 hPa 0,0 l/m 0 min 2 min 0 W/m 33,5 km/h (5 Bft)
24.12.2014 19:02 6,8 C 5,6 C 97 % 1016,8 hPa 0,0 l/m 0 min 2 min 0 W/m 29,3 km/h (5 Bft)
24.12.2014 19:04 6,8 C 5,6 C 97 % 1016,8 hPa 0,2 l/m 0 min 2 min 0 W/m 25,1 km/h (4 Bft)
24.12.2014 19:06 6,8 C 5,6 C 97 % 1016,9 hPa 0,0 l/m 0 min 2 min 0 W/m 31,4 km/h (5 Bft)
24.12.2014 19:08 6,8 C 5,6 C 97 % 1016,9 hPa 0,0 l/m 0 min 2 min 0 W/m 29,3 km/h (5 Bft)
24.12.2014 19:10 6,7 C 5,6 C 97 % 1017,0 hPa 0,0 l/m 0 min 2 min 0 W/m 18,8 km/h (3 Bft)
24.12.2014 19:12 6,7 C 5,6 C 97 % 1017,0 hPa 0,0 l/m 0 min 2 min 0 W/m 27,2 km/h (4 Bft)
24.12.2014 19:14 6,7 C 5,6 C 97 % 1017,0 hPa 0,2 l/m 0 min 2 min 0 W/m 18,8 km/h (3 Bft)
24.12.2014 19:16 6,7 C 5,6 C 97 % 1017,0 hPa 0,0 l/m 0 min 2 min 0 W/m 20,9 km/h (4 Bft)
24.12.2014 19:18 6,7 C 5,6 C 97 % 1017,0 hPa 0,0 l/m 0 min 2 min 0 W/m 16,7 km/h (3 Bft)
24.12.2014 19:20 6,7 C 5,6 C 97 % 1017,0 hPa 0,0 l/m 0 min 2 min 0 W/m 18,8 km/h (3 Bft)
24.12.2014 19:22 6,7 C 5,6 C 97 % 1017,1 hPa 0,0 l/m 0 min 2 min 0 W/m 20,9 km/h (4 Bft)
24.12.2014 19:24 6,7 C 5,6 C 97 % 1017,1 hPa 0,0 l/m 0 min 2 min 0 W/m 14,6 km/h (3 Bft)
24.12.2014 19:26 6,7 C 5,6 C 97 % 1017,0 hPa 0,0 l/m 0 min 2 min 0 W/m 14,6 km/h (3 Bft)
24.12.2014 19:28 6,7 C 5,6 C 97 % 1017,1 hPa 0,0 l/m 0 min 2 min 0 W/m 18,8 km/h (3 Bft)
24.12.2014 19:30 6,6 C 5,6 C 97 % 1017,1 hPa 0,0 l/m 0 min 2 min 0 W/m 12,6 km/h (3 Bft)
24.12.2014 19:32 6,6 C 5,6 C 97 % 1017,2 hPa 0,0 l/m 0 min 2 min 0 W/m 16,7 km/h (3 Bft)
24.12.2014 19:34 6,6 C 5,6 C 97 % 1017,2 hPa 0,0 l/m 0 min 2 min 0 W/m 20,9 km/h (4 Bft)
24.12.2014 19:36 6,6 C 5,6 C 97 % 1017,2 hPa 0,0 l/m 0 min 0 min 0 W/m 18,8 km/h (3 Bft)
24.12.2014 19:38 6,6 C 5,0 C 97 % 1017,4 hPa 0,0 l/m 0 min 0 min 0 W/m 20,9 km/h (4 Bft)
24.12.2014 19:40 6,6 C 5,0 C 97 % 1017,3 hPa 0,0 l/m 0 min 0 min 0 W/m 20,9 km/h (4 Bft)
24.12.2014 19:42 6,6 C 5,0 C 97 % 1017,4 hPa 0,0 l/m 0 min 0 min 0 W/m 14,6 km/h (3 Bft)
24.12.2014 19:44 6,6 C 5,6 C 97 % 1017,4 hPa 0,0 l/m 0 min 0 min 0 W/m 12,6 km/h (3 Bft)
24.12.2014 19:46 6,6 C 5,0 C 97 % 1017,4 hPa 0,0 l/m 0 min 0 min 0 W/m 23,0 km/h (4 Bft)
24.12.2014 19:48 6,6 C 5,0 C 97 % 1017,4 hPa 0,0 l/m 0 min 0 min 0 W/m 20,9 km/h (4 Bft)
24.12.2014 19:50 6,5 C 5,6 C 97 % 1017,4 hPa 0,0 l/m 0 min 0 min 0 W/m 16,7 km/h (3 Bft)
24.12.2014 19:52 6,5 C 5,6 C 97 % 1017,5 hPa 0,0 l/m 0 min 0 min 0 W/m 14,6 km/h (3 Bft)
24.12.2014 19:54 6,5 C 5,0 C 97 % 1017,4 hPa 0,0 l/m 0 min 0 min 0 W/m 18,8 km/h (3 Bft)
24.12.2014 19:56 6,5 C 5,0 C 97 % 1017,4 hPa 0,0 l/m 0 min 0 min 0 W/m 16,7 km/h (3 Bft)
24.12.2014 19:58 6,5 C 5,0 C 97 % 1017,5 hPa 0,0 l/m 0 min 0 min 0 W/m 14,6 km/h (3 Bft)
24.12.2014 20:00 6,4 C 5,0 C 97 % 1017,5 hPa 0,0 l/m 0 min 0 min 0 W/m 16,7 km/h (3 Bft)
24.12.2014 20:02 6,4 C 5,0 C 97 % 1017,5 hPa 0,0 l/m 0 min 0 min 0 W/m 25,1 km/h (4 Bft)
24.12.2014 20:04 6,4 C 5,0 C 97 % 1017,4 hPa 0,0 l/m 0 min 0 min 0 W/m 14,6 km/h (3 Bft)
24.12.2014 20:06 6,4 C 5,0 C 97 % 1017,5 hPa 0,0 l/m 0 min 0 min 0 W/m 18,8 km/h (3 Bft)
24.12.2014 20:08 6,4 C 5,0 C 97 % 1017,6 hPa 0,0 l/m 0 min 0 min 0 W/m 14,6 km/h (3 Bft)
24.12.2014 20:10 6,3 C 5,0 C 97 % 1017,7 hPa 0,0 l/m 0 min 0 min 0 W/m 16,7 km/h (3 Bft)
24.12.2014 20:12 6,3 C 5,0 C 97 % 1017,8 hPa 0,0 l/m 0 min 0 min 0 W/m 23,0 km/h (4 Bft)
24.12.2014 20:14 6,3 C 5,0 C 97 % 1017,8 hPa 0,0 l/m 0 min 0 min 0 W/m 14,6 km/h (3 Bft)
24.12.2014 20:16 6,3 C 5,0 C 97 % 1017,8 hPa 0,0 l/m 0 min 0 min 0 W/m 12,6 km/h (3 Bft)
24.12.2014 20:18 6,2 C 5,0 C 97 % 1017,9 hPa 0,0 l/m 0 min 0 min 0 W/m 14,6 km/h (3 Bft)
24.12.2014 20:20 6,2 C 5,0 C 97 % 1017,9 hPa 0,0 l/m 0 min 0 min 0 W/m 18,8 km/h (3 Bft)
24.12.2014 20:22 6,2 C 5,0 C 97 % 1018,0 hPa 0,0 l/m 0 min 0 min 0 W/m 14,6 km/h (3 Bft)
24.12.2014 20:24 6,2 C 5,0 C 97 % 1018,0 hPa 0,0 l/m 0 min 0 min 0 W/m 16,7 km/h (3 Bft)
24.12.2014 20:26 6,2 C 5,0 C 97 % 1018,0 hPa 0,0 l/m 0 min 0 min 0 W/m 14,6 km/h (3 Bft)
24.12.2014 20:28 6,2 C 5,0 C 97 % 1018,1 hPa 0,0 l/m 0 min 0 min 0 W/m 12,6 km/h (3 Bft)
24.12.2014 20:30 6,2 C 5,0 C 97 % 1018,0 hPa 0,0 l/m 0 min 0 min 0 W/m 14,6 km/h (3 Bft)
24.12.2014 20:32 6,2 C 5,0 C 97 % 1017,9 hPa 0,0 l/m 0 min 0 min 0 W/m 8,4 km/h (2 Bft)
24.12.2014 20:34 6,2 C 5,0 C 97 % 1018,0 hPa 0,0 l/m 0 min 0 min 0 W/m 10,5 km/h (2 Bft)
24.12.2014 20:36 6,2 C 5,0 C 97 % 1018,0 hPa 0,0 l/m 0 min 0 min 0 W/m 18,8 km/h (3 Bft)
24.12.2014 20:38 6,2 C 5,0 C 97 % 1018,0 hPa 0,0 l/m 0 min 0 min 0 W/m 14,6 km/h (3 Bft)
24.12.2014 20:40 6,2 C 5,0 C 97 % 1018,0 hPa 0,0 l/m 0 min 0 min 0 W/m 14,6 km/h (3 Bft)
24.12.2014 20:42 6,2 C 5,0 C 97 % 1018,0 hPa 0,0 l/m 0 min 0 min 0 W/m 12,6 km/h (3 Bft)
24.12.2014 20:44 6,2 C 5,0 C 97 % 1018,1 hPa 0,0 l/m 0 min 0 min 0 W/m 14,6 km/h (3 Bft)
24.12.2014 20:46 6,2 C 5,0 C 97 % 1018,2 hPa 0,0 l/m 0 min 0 min 0 W/m 20,9 km/h (4 Bft)
24.12.2014 20:48 6,2 C 5,0 C 97 % 1018,2 hPa 0,0 l/m 0 min 0 min 0 W/m 14,6 km/h (3 Bft)
24.12.2014 20:50 6,2 C 5,0 C 97 % 1018,4 hPa 0,0 l/m 0 min 0 min 0 W/m 14,6 km/h (3 Bft)
24.12.2014 20:52 6,2 C 5,0 C 97 % 1018,4 hPa 0,0 l/m 0 min 0 min 0 W/m 20,9 km/h (4 Bft)
24.12.2014 20:54 6,2 C 5,0 C 97 % 1018,2 hPa 0,0 l/m 0 min 0 min 0 W/m 20,9 km/h (4 Bft)
24.12.2014 20:56 6,2 C 5,0 C 97 % 1018,2 hPa 0,0 l/m 0 min 0 min 0 W/m 20,9 km/h (4 Bft)
24.12.2014 20:58 6,2 C 5,0 C 97 % 1018,3 hPa 0,0 l/m 0 min 0 min 0 W/m 16,7 km/h (3 Bft)
24.12.2014 21:00 6,2 C 5,0 C 97 % 1018,4 hPa 0,0 l/m 0 min 0 min 0 W/m 20,9 km/h (4 Bft)
24.12.2014 21:02 6,2 C 5,0 C 97 % 1018,4 hPa 0,0 l/m 0 min 0 min 0 W/m 18,8 km/h (3 Bft)
24.12.2014 21:04 6,2 C 5,0 C 97 % 1018,4 hPa 0,0 l/m 0 min 0 min 0 W/m 23,0 km/h (4 Bft)
24.12.2014 21:06 6,2 C 5,0 C 97 % 1018,4 hPa 0,0 l/m 0 min 0 min 0 W/m 23,0 km/h (4 Bft)
24.12.2014 21:08 6,2 C 5,0 C 97 % 1018,5 hPa 0,0 l/m 0 min 0 min 0 W/m 16,7 km/h (3 Bft)
24.12.2014 21:10 6,1 C 5,0 C 97 % 1018,5 hPa 0,0 l/m 0 min 0 min 0 W/m 18,8 km/h (3 Bft)
24.12.2014 21:12 6,1 C 5,0 C 97 % 1018,5 hPa 0,0 l/m 0 min 0 min 0 W/m 20,9 km/h (4 Bft)
24.12.2014 21:14 6,1 C 5,0 C 97 % 1018,5 hPa 0,0 l/m 0 min 0 min 0 W/m 16,7 km/h (3 Bft)
24.12.2014 21:16 6,1 C 5,0 C 97 % 1018,7 hPa 0,0 l/m 0 min 0 min 0 W/m 18,8 km/h (3 Bft)
24.12.2014 21:18 6,1 C 5,0 C 97 % 1018,8 hPa 0,0 l/m 0 min 0 min 0 W/m 20,9 km/h (4 Bft)
24.12.2014 21:20 6,1 C 5,0 C 97 % 1018,9 hPa 0,0 l/m 0 min 0 min 0 W/m 12,6 km/h (3 Bft)
24.12.2014 21:22 6,1 C 5,0 C 97 % 1018,9 hPa 0,0 l/m 0 min 0 min 0 W/m 18,8 km/h (3 Bft)
24.12.2014 21:24 6,0 C 5,0 C 97 % 1018,9 hPa 0,0 l/m 0 min 0 min 0 W/m 8,4 km/h (2 Bft)
24.12.2014 21:26 6,0 C 5,0 C 97 % 1018,9 hPa 0,0 l/m 0 min 0 min 0 W/m 12,6 km/h (3 Bft)
24.12.2014 21:28 6,0 C 5,0 C 97 % 1018,9 hPa 0,0 l/m 0 min 0 min 0 W/m 27,2 km/h (4 Bft)
24.12.2014 21:30 5,9 C 5,0 C 97 % 1018,9 hPa 0,0 l/m 0 min 0 min 0 W/m 16,7 km/h (3 Bft)
24.12.2014 21:32 5,9 C 5,0 C 97 % 1019,0 hPa 0,0 l/m 0 min 0 min 0 W/m 23,0 km/h (4 Bft)
24.12.2014 21:34 5,9 C 5,0 C 97 % 1018,9 hPa 0,0 l/m 0 min 0 min 0 W/m 25,1 km/h (4 Bft)
24.12.2014 21:36 5,9 C 4,4 C 97 % 1019,0 hPa 0,0 l/m 0 min 0 min 0 W/m 18,8 km/h (3 Bft)
24.12.2014 21:38 5,8 C 4,4 C 97 % 1019,0 hPa 0,0 l/m 0 min 0 min 0 W/m 14,6 km/h (3 Bft)
24.12.2014 21:40 5,8 C 4,4 C 97 % 1019,0 hPa 0,0 l/m 0 min 0 min 0 W/m 14,6 km/h (3 Bft)
24.12.2014 21:42 5,8 C 4,4 C 97 % 1019,1 hPa 0,0 l/m 0 min 0 min 0 W/m 20,9 km/h (4 Bft)
24.12.2014 21:44 5,8 C 4,4 C 97 % 1019,1 hPa 0,0 l/m 0 min 0 min 0 W/m 12,6 km/h (3 Bft)
24.12.2014 21:46 5,7 C 4,4 C 97 % 1019,1 hPa 0,0 l/m 0 min 0 min 0 W/m 16,7 km/h (3 Bft)
24.12.2014 21:48 5,7 C 4,4 C 96 % 1019,2 hPa 0,0 l/m 0 min 0 min 0 W/m 12,6 km/h (3 Bft)
24.12.2014 21:50 5,7 C 3,9 C 96 % 1019,2 hPa 0,0 l/m 0 min 0 min 0 W/m 16,7 km/h (3 Bft)
24.12.2014 21:52 5,7 C 4,4 C 96 % 1019,2 hPa 0,0 l/m 0 min 0 min 0 W/m 18,8 km/h (3 Bft)
24.12.2014 21:54 5,6 C 3,9 C 96 % 1019,3 hPa 0,0 l/m 0 min 0 min 0 W/m 14,6 km/h (3 Bft)
24.12.2014 21:56 5,6 C 4,4 C 96 % 1019,3 hPa 0,0 l/m 0 min 0 min 0 W/m 12,6 km/h (3 Bft)
24.12.2014 21:58 5,5 C 4,4 C 96 % 1019,2 hPa 0,0 l/m 0 min 0 min 0 W/m 20,9 km/h (4 Bft)
24.12.2014 22:00 5,5 C 4,4 C 96 % 1019,2 hPa 0,0 l/m 0 min 0 min 0 W/m 18,8 km/h (3 Bft)
24.12.2014 22:02 5,4 C 4,4 C 96 % 1019,2 hPa 0,0 l/m 0 min 0 min 0 W/m 18,8 km/h (3 Bft)
24.12.2014 22:04 5,4 C 3,9 C 96 % 1019,2 hPa 0,0 l/m 0 min 0 min 0 W/m 16,7 km/h (3 Bft)
24.12.2014 22:06 5,4 C 3,9 C 95 % 1019,2 hPa 0,0 l/m 0 min 0 min 0 W/m 23,0 km/h (4 Bft)
24.12.2014 22:08 5,4 C 3,9 C 95 % 1019,2 hPa 0,0 l/m 0 min 0 min 0 W/m 14,6 km/h (3 Bft)
24.12.2014 22:10 5,3 C 3,9 C 95 % 1019,3 hPa 0,0 l/m 0 min 0 min 0 W/m 16,7 km/h (3 Bft)
24.12.2014 22:12 5,3 C 3,9 C 95 % 1019,3 hPa 0,0 l/m 0 min 0 min 0 W/m 14,6 km/h (3 Bft)
24.12.2014 22:14 5,3 C 3,9 C 95 % 1019,2 hPa 0,0 l/m 0 min 0 min 0 W/m 14,6 km/h (3 Bft)
24.12.2014 22:16 5,3 C 3,9 C 95 % 1019,3 hPa 0,0 l/m 0 min 0 min 0 W/m 12,6 km/h (3 Bft)
24.12.2014 22:18 5,3 C 3,9 C 94 % 1019,3 hPa 0,0 l/m 0 min 0 min 0 W/m 12,6 km/h (3 Bft)
24.12.2014 22:20 5,3 C 3,9 C 94 % 1019,3 hPa 0,0 l/m 0 min 0 min 0 W/m 10,5 km/h (2 Bft)
24.12.2014 22:22 5,3 C 3,9 C 94 % 1019,3 hPa 0,0 l/m 0 min 0 min 0 W/m 10,5 km/h (2 Bft)
24.12.2014 22:24 5,3 C 3,9 C 94 % 1019,4 hPa 0,0 l/m 0 min 0 min 0 W/m 20,9 km/h (4 Bft)
24.12.2014 22:26 5,3 C 3,9 C 94 % 1019,4 hPa 0,0 l/m 0 min 0 min 0 W/m 12,6 km/h (3 Bft)
24.12.2014 22:28 5,3 C 3,9 C 93 % 1019,4 hPa 0,0 l/m 0 min 0 min 0 W/m 12,6 km/h (3 Bft)
24.12.2014 22:30 5,3 C 3,9 C 93 % 1019,3 hPa 0,0 l/m 0 min 0 min 0 W/m 16,7 km/h (3 Bft)
24.12.2014 22:32 5,3 C 3,9 C 93 % 1019,3 hPa 0,0 l/m 0 min 0 min 0 W/m 16,7 km/h (3 Bft)
24.12.2014 22:34 5,3 C 3,9 C 93 % 1019,4 hPa 0,0 l/m 0 min 0 min 0 W/m 14,6 km/h (3 Bft)
24.12.2014 22:36 5,2 C 3,9 C 93 % 1019,3 hPa 0,0 l/m 0 min 0 min 0 W/m 14,6 km/h (3 Bft)
24.12.2014 22:38 5,2 C 3,9 C 92 % 1019,3 hPa 0,0 l/m 0 min 0 min 0 W/m 18,8 km/h (3 Bft)
24.12.2014 22:40 5,2 C 3,3 C 92 % 1019,3 hPa 0,0 l/m 0 min 0 min 0 W/m 16,7 km/h (3 Bft)
24.12.2014 22:42 5,2 C 3,3 C 91 % 1019,4 hPa 0,0 l/m 0 min 0 min 0 W/m 12,6 km/h (3 Bft)
24.12.2014 22:44 5,2 C 3,3 C 91 % 1019,4 hPa 0,0 l/m 0 min 0 min 0 W/m 12,6 km/h (3 Bft)
24.12.2014 22:46 5,2 C 3,3 C 91 % 1019,4 hPa 0,0 l/m 0 min 0 min 0 W/m 12,6 km/h (3 Bft)
24.12.2014 22:48 5,2 C 3,3 C 91 % 1019,4 hPa 0,0 l/m 0 min 0 min 0 W/m 14,6 km/h (3 Bft)
24.12.2014 22:50 5,1 C 3,3 C 91 % 1019,5 hPa 0,0 l/m 0 min 0 min 0 W/m 14,6 km/h (3 Bft)
24.12.2014 22:52 5,1 C 3,3 C 90 % 1019,5 hPa 0,0 l/m 0 min 0 min 0 W/m 14,6 km/h (3 Bft)
24.12.2014 22:54 5,1 C 3,3 C 90 % 1019,6 hPa 0,0 l/m 0 min 0 min 0 W/m 16,7 km/h (3 Bft)
24.12.2014 22:56 5,1 C 3,3 C 90 % 1019,6 hPa 0,0 l/m 0 min 0 min 0 W/m 10,5 km/h (2 Bft)
24.12.2014 22:58 5,1 C 3,3 C 90 % 1019,6 hPa 0,0 l/m 0 min 0 min 0 W/m 20,9 km/h (4 Bft)
24.12.2014 23:00 5,1 C 3,3 C 90 % 1019,7 hPa 0,0 l/m 0 min 0 min 0 W/m 10,5 km/h (2 Bft)
24.12.2014 23:02 5,1 C 3,3 C 90 % 1019,6 hPa 0,0 l/m 0 min 0 min 0 W/m 16,7 km/h (3 Bft)
24.12.2014 23:04 5,0 C 3,3 C 90 % 1019,7 hPa 0,0 l/m 0 min 0 min 0 W/m 18,8 km/h (3 Bft)
24.12.2014 23:06 5,0 C 3,3 C 90 % 1019,7 hPa 0,0 l/m 0 min 0 min 0 W/m 10,5 km/h (2 Bft)
24.12.2014 23:08 5,0 C 3,3 C 90 % 1019,7 hPa 0,0 l/m 0 min 0 min 0 W/m 14,6 km/h (3 Bft)
24.12.2014 23:10 5,0 C 3,3 C 90 % 1019,7 hPa 0,0 l/m 0 min 0 min 0 W/m 20,9 km/h (4 Bft)
24.12.2014 23:12 5,0 C 3,3 C 90 % 1019,7 hPa 0,0 l/m 0 min 0 min 0 W/m 12,6 km/h (3 Bft)
24.12.2014 23:14 4,9 C 3,3 C 90 % 1019,7 hPa 0,0 l/m 0 min 0 min 0 W/m 18,8 km/h (3 Bft)
24.12.2014 23:16 4,9 C 3,3 C 90 % 1019,6 hPa 0,0 l/m 0 min 0 min 0 W/m 18,8 km/h (3 Bft)
24.12.2014 23:18 4,9 C 3,3 C 90 % 1019,6 hPa 0,0 l/m 0 min 0 min 0 W/m 20,9 km/h (4 Bft)
24.12.2014 23:20 4,9 C 3,3 C 90 % 1019,6 hPa 0,0 l/m 0 min 0 min 0 W/m 14,6 km/h (3 Bft)
24.12.2014 23:22 4,9 C 3,3 C 90 % 1019,7 hPa 0,0 l/m 0 min 0 min 0 W/m 16,7 km/h (3 Bft)
24.12.2014 23:24 4,9 C 3,3 C 90 % 1019,7 hPa 0,0 l/m 0 min 0 min 0 W/m 18,8 km/h (3 Bft)
24.12.2014 23:26 4,9 C 3,3 C 90 % 1019,7 hPa 0,0 l/m 0 min 0 min 0 W/m 18,8 km/h (3 Bft)
24.12.2014 23:28 4,9 C 3,3 C 90 % 1019,6 hPa 0,0 l/m 0 min 0 min 0 W/m 18,8 km/h (3 Bft)
24.12.2014 23:30 4,8 C 3,3 C 90 % 1019,6 hPa 0,0 l/m 0 min 0 min 0 W/m 25,1 km/h (4 Bft)
24.12.2014 23:32 4,8 C 3,3 C 90 % 1019,6 hPa 0,0 l/m 0 min 0 min 0 W/m 16,7 km/h (3 Bft)
24.12.2014 23:34 4,8 C 3,3 C 90 % 1019,7 hPa 0,0 l/m 0 min 0 min 0 W/m 20,9 km/h (4 Bft)
24.12.2014 23:36 4,8 C 3,3 C 90 % 1019,7 hPa 0,0 l/m 0 min 0 min 0 W/m 20,9 km/h (4 Bft)
24.12.2014 23:38 4,8 C 3,3 C 90 % 1019,8 hPa 0,0 l/m 0 min 0 min 0 W/m 23,0 km/h (4 Bft)
24.12.2014 23:40 4,8 C 3,3 C 90 % 1019,9 hPa 0,0 l/m 0 min 0 min 0 W/m 20,9 km/h (4 Bft)
24.12.2014 23:42 4,8 C 3,3 C 90 % 1019,8 hPa 0,0 l/m 0 min 0 min 0 W/m 27,2 km/h (4 Bft)
24.12.2014 23:44 4,8 C 3,3 C 90 % 1019,8 hPa 0,0 l/m 0 min 0 min 0 W/m 23,0 km/h (4 Bft)
24.12.2014 23:46 4,8 C 3,3 C 90 % 1019,8 hPa 0,0 l/m 0 min 0 min 0 W/m 23,0 km/h (4 Bft)
24.12.2014 23:48 4,8 C 3,3 C 90 % 1019,8 hPa 0,0 l/m 0 min 0 min 0 W/m 18,8 km/h (3 Bft)
24.12.2014 23:50 4,8 C 3,3 C 90 % 1019,9 hPa 0,0 l/m 0 min 0 min 0 W/m 18,8 km/h (3 Bft)
24.12.2014 23:52 4,8 C 3,3 C 90 % 1020,0 hPa 0,0 l/m 0 min 0 min 0 W/m 16,7 km/h (3 Bft)
24.12.2014 23:54 4,8 C 3,3 C 90 % 1020,0 hPa 0,0 l/m 0 min 0 min 0 W/m 18,8 km/h (3 Bft)
24.12.2014 23:56 4,8 C 3,3 C 90 % 1019,9 hPa 0,0 l/m 0 min 0 min 0 W/m 16,7 km/h (3 Bft)
24.12.2014 23:58 4,7 C 3,3 C 90 % 1020,0 hPa 0,0 l/m 0 min 0 min 0 W/m 23,0 km/h (4 Bft)
_ Min-Zeit 23:54 22:40 00:58 14:40 - - - - 17:52
Minimum _ 4,7 C 3,3 C 81 % 1013,6 hPa - - - - 4,2 km/h (1 Bft)
_ Max-Zeit 00:00 00:00 16:04 23:52 16:12 00:00 07:48 13:08 08:28
Maximum _ 9,7 C 8,3 C 98 % 1020,0 hPa 0,6 l/m 0 min 2 min 73 W/m 54,4 km/h
W (7 Bft)
Durchschnitt _ 8,0 C 6,7 C 90 % 1015,9 hPa #4,0 l/m #0 min. #6:28 h 27 W/m 30,4 km/h (5 Bft)
© 2015 W. Hausmann